<?xml version="1.0" encoding="UTF-8" standalone="no" ?><gpx xmlns="http://www.topografix.com/GPX/1/1" xmlns:gpxx="http://www.garmin.com/xmlschemas/GpxExtensions/v3" xmlns:wptx1="http://www.garmin.com/xmlschemas/WaypointExtension/v1" xmlns:gpxtpx="http://www.garmin.com/xmlschemas/TrackPointExtension/v1" creator="Dakota 20" version="1.1" xmlns:xsi="http://www.w3.org/2001/XMLSchema-instance" xsi:schemaLocation="http://www.topografix.com/GPX/1/1 http://www.topografix.com/GPX/1/1/gpx.xsd http://www.garmin.com/xmlschemas/GpxExtensions/v3 http://www8.garmin.com/xmlschemas/GpxExtensionsv3.xsd http://www.garmin.com/xmlschemas/WaypointExtension/v1 http://www8.garmin.com/xmlschemas/WaypointExtensionv1.xsd http://www.garmin.com/xmlschemas/TrackPointExtension/v1 http://www.garmin.com/xmlschemas/TrackPointExtensionv1.xsd"><metadata><link href="http://www.garmin.com"><text>Garmin International</text></link><time>2015-02-04T16:04:54Z</time></metadata><trk><name>Current Track: 04 FEB 2015 09:55</name><extensions><gpxx:TrackExtension><gpxx:DisplayColor>Cyan</gpxx:DisplayColor></gpxx:TrackExtension></extensions><trkseg><trkpt lat="52.0076259412" lon="-1.9032139610"><ele>100.60</ele><time>2015-02-04T09:55:56Z</time></trkpt><trkpt lat="52.0076256059" lon="-1.9032118656"><ele>99.63</ele><time>2015-02-04T09:56:05Z</time></trkpt><trkpt lat="52.0076242648" lon="-1.9032096863"><ele>100.60</ele><time>2015-02-04T09:56:20Z</time></trkpt><trkpt lat="52.0075925812" lon="-1.9031045772"><ele>100.60</ele><time>2015-02-04T09:56:36Z</time></trkpt><trkpt lat="52.0075362548" lon="-1.9029755797"><ele>100.60</ele><time>2015-02-04T09:56:50Z</time></trkpt><trkpt lat="52.0074412879" lon="-1.9029752444"><ele>99.63</ele><time>2015-02-04T09:57:03Z</time></trkpt><trkpt lat="52.0073189959" lon="-1.9029671978"><ele>99.15</ele><time>2015-02-04T09:57:20Z</time></trkpt><trkpt lat="52.0071451552" lon="-1.9029100332"><ele>99.63</ele><time>2015-02-04T09:57:38Z</time></trkpt><trkpt lat="52.0070317481" lon="-1.9028390385"><ele>100.11</ele><time>2015-02-04T09:57:52Z</time></trkpt><trkpt lat="52.0068766829" lon="-1.9027034193"><ele>100.60</ele><time>2015-02-04T09:58:10Z</time></trkpt><trkpt lat="52.0067431591" lon="-1.9024958834"><ele>100.60</ele><time>2015-02-04T09:58:32Z</time></trkpt><trkpt lat="52.0066179335" lon="-1.9023982342"><ele>101.56</ele><time>2015-02-04T09:58:48Z</time></trkpt><trkpt lat="52.0064630359" lon="-1.9024508726"><ele>102.04</ele><time>2015-02-04T09:59:06Z</time></trkpt><trkpt lat="52.0063767023" lon="-1.9025228731"><ele>102.04</ele><time>2015-02-04T09:59:24Z</time></trkpt><trkpt lat="52.0062751137" lon="-1.9025776908"><ele>101.08</ele><time>2015-02-04T09:59:41Z</time></trkpt><trkpt lat="52.0061583538" lon="-1.9026127271"><ele>101.56</ele><time>2015-02-04T09:59:53Z</time></trkpt><trkpt lat="52.0060689189" lon="-1.9026527088"><ele>101.56</ele><time>2015-02-04T10:00:11Z</time></trkpt><trkpt lat="52.0060473774" lon="-1.9026771002"><ele>101.56</ele><time>2015-02-04T10:00:32Z</time></trkpt><trkpt lat="52.0059098303" lon="-1.9027102087"><ele>101.08</ele><time>2015-02-04T10:00:48Z</time></trkpt><trkpt lat="52.0057263505" lon="-1.9027633499"><ele>100.60</ele><time>2015-02-04T10:01:06Z</time></trkpt><trkpt lat="52.0055592991" lon="-1.9028420560"><ele>100.60</ele><time>2015-02-04T10:01:25Z</time></trkpt><trkpt lat="52.0054597221" lon="-1.9028998911"><ele>100.11</ele><time>2015-02-04T10:01:37Z</time></trkpt><trkpt lat="52.0052645076" lon="-1.9030754920"><ele>99.63</ele><time>2015-02-04T10:01:58Z</time></trkpt><trkpt lat="52.0051054191" lon="-1.9031785894"><ele>100.11</ele><time>2015-02-04T10:02:14Z</time></trkpt><trkpt lat="52.0049353503" lon="-1.9031895697"><ele>101.56</ele><time>2015-02-04T10:02:31Z</time></trkpt><trkpt lat="52.0049128868" lon="-1.9031716324"><ele>102.52</ele><time>2015-02-04T10:02:34Z</time></trkpt><trkpt lat="52.0047701430" lon="-1.9030407909"><ele>103.48</ele><time>2015-02-04T10:02:51Z</time></trkpt><trkpt lat="52.0047061052" lon="-1.9030410424"><ele>103.96</ele><time>2015-02-04T10:03:05Z</time></trkpt><trkpt lat="52.0046489406" lon="-1.9031146355"><ele>103.48</ele><time>2015-02-04T10:03:15Z</time></trkpt><trkpt lat="52.0045880042" lon="-1.9031527732"><ele>103.48</ele><time>2015-02-04T10:03:22Z</time></trkpt><trkpt lat="52.0044289995" lon="-1.9032518473"><ele>104.44</ele><time>2015-02-04T10:03:38Z</time></trkpt><trkpt lat="52.0042808913" lon="-1.9033159688"><ele>104.92</ele><time>2015-02-04T10:03:55Z</time></trkpt><trkpt lat="52.0042698272" lon="-1.9033189025"><ele>104.92</ele><time>2015-02-04T10:03:56Z</time></trkpt><trkpt lat="52.0041366387" lon="-1.9033676013"><ele>105.40</ele><time>2015-02-04T10:04:11Z</time></trkpt><trkpt lat="52.0040017739" lon="-1.9034349918"><ele>105.40</ele><time>2015-02-04T10:04:26Z</time></trkpt><trkpt lat="52.0039436873" lon="-1.9034647476"><ele>105.40</ele><time>2015-02-04T10:04:32Z</time></trkpt><trkpt lat="52.0037798211" lon="-1.9035753049"><ele>105.88</ele><time>2015-02-04T10:04:51Z</time></trkpt><trkpt lat="52.0036204811" lon="-1.9036859460"><ele>105.88</ele><time>2015-02-04T10:05:08Z</time></trkpt><trkpt lat="52.0034766477" lon="-1.9037612155"><ele>106.84</ele><time>2015-02-04T10:05:23Z</time></trkpt><trkpt lat="52.0033145417" lon="-1.9038021192"><ele>105.40</ele><time>2015-02-04T10:05:39Z</time></trkpt><trkpt lat="52.0031231828" lon="-1.9038113393"><ele>105.40</ele><time>2015-02-04T10:05:59Z</time></trkpt><trkpt lat="52.0030398667" lon="-1.9037889596"><ele>105.40</ele><time>2015-02-04T10:06:12Z</time></trkpt><trkpt lat="52.0030316524" lon="-1.9037912227"><ele>104.92</ele><time>2015-02-04T10:06:34Z</time></trkpt><trkpt lat="52.0030057523" lon="-1.9038054720"><ele>104.92</ele><time>2015-02-04T10:06:47Z</time></trkpt><trkpt lat="52.0028775930" lon="-1.9038861059"><ele>105.40</ele><time>2015-02-04T10:07:01Z</time></trkpt><trkpt lat="52.0027089491" lon="-1.9039752893"><ele>105.40</ele><time>2015-02-04T10:07:19Z</time></trkpt><trkpt lat="52.0025829691" lon="-1.9040651433"><ele>105.88</ele><time>2015-02-04T10:07:37Z</time></trkpt><trkpt lat="52.0024785306" lon="-1.9041186199"><ele>105.88</ele><time>2015-02-04T10:07:54Z</time></trkpt><trkpt lat="52.0024631079" lon="-1.9041337073"><ele>105.88</ele><time>2015-02-04T10:08:10Z</time></trkpt><trkpt lat="52.0024419017" lon="-1.9041453581"><ele>106.36</ele><time>2015-02-04T10:08:28Z</time></trkpt><trkpt lat="52.0024110563" lon="-1.9041531533"><ele>106.84</ele><time>2015-02-04T10:08:47Z</time></trkpt><trkpt lat="52.0023788698" lon="-1.9041677378"><ele>106.84</ele><time>2015-02-04T10:09:01Z</time></trkpt><trkpt lat="52.0023159217" lon="-1.9041999243"><ele>107.32</ele><time>2015-02-04T10:09:18Z</time></trkpt><trkpt lat="52.0022816397" lon="-1.9041905366"><ele>107.32</ele><time>2015-02-04T10:09:35Z</time></trkpt><trkpt lat="52.0022407360" lon="-1.9042052049"><ele>104.44</ele><time>2015-02-04T10:10:05Z</time></trkpt><trkpt lat="52.0022406522" lon="-1.9042051211"><ele>107.32</ele><time>2015-02-04T10:10:06Z</time></trkpt><trkpt lat="52.0022113156" lon="-1.9042092282"><ele>107.81</ele><time>2015-02-04T10:10:20Z</time></trkpt><trkpt lat="52.0021539833" lon="-1.9042655546"><ele>106.84</ele><time>2015-02-04T10:10:40Z</time></trkpt><trkpt lat="52.0021461882" lon="-1.9042796362"><ele>107.81</ele><time>2015-02-04T10:10:58Z</time></trkpt><trkpt lat="52.0021401532" lon="-1.9042909518"><ele>107.81</ele><time>2015-02-04T10:11:17Z</time></trkpt><trkpt lat="52.0020618662" lon="-1.9043466076"><ele>108.29</ele><time>2015-02-04T10:11:32Z</time></trkpt><trkpt lat="52.0019990020" lon="-1.9043984916"><ele>108.29</ele><time>2015-02-04T10:11:46Z</time></trkpt><trkpt lat="52.0018330403" lon="-1.9044900220"><ele>109.73</ele><time>2015-02-04T10:12:03Z</time></trkpt><trkpt lat="52.0016515721" lon="-1.9045968913"><ele>110.69</ele><time>2015-02-04T10:12:21Z</time></trkpt><trkpt lat="52.0015184674" lon="-1.9046753459"><ele>111.65</ele><time>2015-02-04T10:12:35Z</time></trkpt><trkpt lat="52.0013952535" lon="-1.9047502801"><ele>112.61</ele><time>2015-02-04T10:12:48Z</time></trkpt><trkpt lat="52.0012258552" lon="-1.9048441574"><ele>112.61</ele><time>2015-02-04T10:13:04Z</time></trkpt><trkpt lat="52.0010654256" lon="-1.9049413875"><ele>112.13</ele><time>2015-02-04T10:13:20Z</time></trkpt><trkpt lat="52.0010094345" lon="-1.9049648568"><ele>112.13</ele><time>2015-02-04T10:13:34Z</time></trkpt><trkpt lat="52.0009112824" lon="-1.9050453231"><ele>112.13</ele><time>2015-02-04T10:13:49Z</time></trkpt><trkpt lat="52.0007979590" lon="-1.9051513541"><ele>113.09</ele><time>2015-02-04T10:14:03Z</time></trkpt><trkpt lat="52.0006399602" lon="-1.9052428845"><ele>114.53</ele><time>2015-02-04T10:14:19Z</time></trkpt><trkpt lat="52.0005636010" lon="-1.9052978698"><ele>114.53</ele><time>2015-02-04T10:14:37Z</time></trkpt><trkpt lat="52.0005278941" lon="-1.9053168129"><ele>114.53</ele><time>2015-02-04T10:14:55Z</time></trkpt><trkpt lat="52.0004962105" lon="-1.9053365104"><ele>114.05</ele><time>2015-02-04T10:15:12Z</time></trkpt><trkpt lat="52.0004576538" lon="-1.9053765759"><ele>114.05</ele><time>2015-02-04T10:15:19Z</time></trkpt><trkpt lat="52.0002625231" lon="-1.9056201540"><ele>114.05</ele><time>2015-02-04T10:15:34Z</time></trkpt><trkpt lat="52.0001236349" lon="-1.9058908895"><ele>113.09</ele><time>2015-02-04T10:15:51Z</time></trkpt><trkpt lat="51.9999923743" lon="-1.9061312824"><ele>112.61</ele><time>2015-02-04T10:16:08Z</time></trkpt><trkpt lat="51.9998716749" lon="-1.9063097332"><ele>111.65</ele><time>2015-02-04T10:16:22Z</time></trkpt><trkpt lat="51.9997352175" lon="-1.9065042771"><ele>111.17</ele><time>2015-02-04T10:16:39Z</time></trkpt><trkpt lat="51.9996185414" lon="-1.9066082966"><ele>110.69</ele><time>2015-02-04T10:16:54Z</time></trkpt><trkpt lat="51.9994167890" lon="-1.9067304209"><ele>111.17</ele><time>2015-02-04T10:17:13Z</time></trkpt><trkpt lat="51.9992638193" lon="-1.9068381283"><ele>110.21</ele><time>2015-02-04T10:17:29Z</time></trkpt><trkpt lat="51.9992182218" lon="-1.9068845641"><ele>110.21</ele><time>2015-02-04T10:17:34Z</time></trkpt><trkpt lat="51.9990557805" lon="-1.9070372824"><ele>109.73</ele><time>2015-02-04T10:17:52Z</time></trkpt><trkpt lat="51.9988878909" lon="-1.9071874022"><ele>108.77</ele><time>2015-02-04T10:18:09Z</time></trkpt><trkpt lat="51.9987179898" lon="-1.9073717203"><ele>107.32</ele><time>2015-02-04T10:18:27Z</time></trkpt><trkpt lat="51.9985876512" lon="-1.9074826967"><ele>105.88</ele><time>2015-02-04T10:18:41Z</time></trkpt><trkpt lat="51.9985051733" lon="-1.9075502548"><ele>106.36</ele><time>2015-02-04T10:18:50Z</time></trkpt><trkpt lat="51.9984045904" lon="-1.9076489098"><ele>105.88</ele><time>2015-02-04T10:19:10Z</time></trkpt><trkpt lat="51.9983132277" lon="-1.9077197369"><ele>105.88</ele><time>2015-02-04T10:19:26Z</time></trkpt><trkpt lat="51.9981377106" lon="-1.9077826850"><ele>107.32</ele><time>2015-02-04T10:19:43Z</time></trkpt><trkpt lat="51.9979947992" lon="-1.9078539312"><ele>109.25</ele><time>2015-02-04T10:19:59Z</time></trkpt><trkpt lat="51.9978594314" lon="-1.9078995287"><ele>110.69</ele><time>2015-02-04T10:20:14Z</time></trkpt><trkpt lat="51.9977528974" lon="-1.9079613034"><ele>112.13</ele><time>2015-02-04T10:20:29Z</time></trkpt><trkpt lat="51.9976002630" lon="-1.9079929870"><ele>112.61</ele><time>2015-02-04T10:20:44Z</time></trkpt><trkpt lat="51.9974346366" lon="-1.9080292806"><ele>112.61</ele><time>2015-02-04T10:21:01Z</time></trkpt><trkpt lat="51.9972669985" lon="-1.9080933183"><ele>112.61</ele><time>2015-02-04T10:21:21Z</time></trkpt><trkpt lat="51.9970984384" lon="-1.9081386644"><ele>112.13</ele><time>2015-02-04T10:21:41Z</time></trkpt><trkpt lat="51.9969043974" lon="-1.9081839267"><ele>111.17</ele><time>2015-02-04T10:22:02Z</time></trkpt><trkpt lat="51.9967054110" lon="-1.9082153589"><ele>110.69</ele><time>2015-02-04T10:22:23Z</time></trkpt><trkpt lat="51.9964990485" lon="-1.9081997685"><ele>109.73</ele><time>2015-02-04T10:22:45Z</time></trkpt><trkpt lat="51.9963072706" lon="-1.9081539195"><ele>110.21</ele><time>2015-02-04T10:23:04Z</time></trkpt><trkpt lat="51.9961299933" lon="-1.9082002714"><ele>109.73</ele><time>2015-02-04T10:23:25Z</time></trkpt><trkpt lat="51.9960221183" lon="-1.9081954937"><ele>109.25</ele><time>2015-02-04T10:23:44Z</time></trkpt><trkpt lat="51.9959152490" lon="-1.9081838429"><ele>109.73</ele><time>2015-02-04T10:24:01Z</time></trkpt><trkpt lat="51.9958942104" lon="-1.9082068093"><ele>109.25</ele><time>2015-02-04T10:24:21Z</time></trkpt><trkpt lat="51.9958294183" lon="-1.9082890358"><ele>109.73</ele><time>2015-02-04T10:24:41Z</time></trkpt><trkpt lat="51.9956331979" lon="-1.9083936419"><ele>109.25</ele><time>2015-02-04T10:25:01Z</time></trkpt><trkpt lat="51.9954643026" lon="-1.9085990824"><ele>109.25</ele><time>2015-02-04T10:25:21Z</time></trkpt><trkpt lat="51.9953773823" lon="-1.9087341987"><ele>109.25</ele><time>2015-02-04T10:25:38Z</time></trkpt><trkpt lat="51.9953284319" lon="-1.9088200293"><ele>109.25</ele><time>2015-02-04T10:25:56Z</time></trkpt><trkpt lat="51.9953102432" lon="-1.9088287465"><ele>109.25</ele><time>2015-02-04T10:26:18Z</time></trkpt><trkpt lat="51.9953028671" lon="-1.9088355359"><ele>109.73</ele><time>2015-02-04T10:26:54Z</time></trkpt><trkpt lat="51.9952799007" lon="-1.9088763557"><ele>109.25</ele><time>2015-02-04T10:27:10Z</time></trkpt><trkpt lat="51.9951337203" lon="-1.9090163335"><ele>109.25</ele><time>2015-02-04T10:27:28Z</time></trkpt><trkpt lat="51.9949104264" lon="-1.9090964645"><ele>109.25</ele><time>2015-02-04T10:27:47Z</time></trkpt><trkpt lat="51.9947960135" lon="-1.9091761764"><ele>109.25</ele><time>2015-02-04T10:28:01Z</time></trkpt><trkpt lat="51.9946715422" lon="-1.9092673715"><ele>107.81</ele><time>2015-02-04T10:28:16Z</time></trkpt><trkpt lat="51.9946181495" lon="-1.9092803635"><ele>106.84</ele><time>2015-02-04T10:28:36Z</time></trkpt><trkpt lat="51.9946023077" lon="-1.9093052577"><ele>106.36</ele><time>2015-02-04T10:28:38Z</time></trkpt><trkpt lat="51.9944493379" lon="-1.9094712194"><ele>105.40</ele><time>2015-02-04T10:28:55Z</time></trkpt><trkpt lat="51.9942843821" lon="-1.9096625783"><ele>103.48</ele><time>2015-02-04T10:29:15Z</time></trkpt><trkpt lat="51.9941713940" lon="-1.9097744767"><ele>100.11</ele><time>2015-02-04T10:29:31Z</time></trkpt><trkpt lat="51.9940400496" lon="-1.9099821802"><ele>99.63</ele><time>2015-02-04T10:29:49Z</time></trkpt><trkpt lat="51.9939459208" lon="-1.9101043884"><ele>98.67</ele><time>2015-02-04T10:30:05Z</time></trkpt><trkpt lat="51.9938377105" lon="-1.9102182984"><ele>97.23</ele><time>2015-02-04T10:30:17Z</time></trkpt><trkpt lat="51.9936752692" lon="-1.9103687536"><ele>96.75</ele><time>2015-02-04T10:30:36Z</time></trkpt><trkpt lat="51.9934922084" lon="-1.9105525687"><ele>94.35</ele><time>2015-02-04T10:30:57Z</time></trkpt><trkpt lat="51.9933509734" lon="-1.9106974918"><ele>94.83</ele><time>2015-02-04T10:31:15Z</time></trkpt><trkpt lat="51.9932101574" lon="-1.9108451810"><ele>93.39</ele><time>2015-02-04T10:31:34Z</time></trkpt><trkpt lat="51.9931376539" lon="-1.9109631144"><ele>92.90</ele><time>2015-02-04T10:31:44Z</time></trkpt><trkpt lat="51.9930885360" lon="-1.9110372104"><ele>92.42</ele><time>2015-02-04T10:31:51Z</time></trkpt><trkpt lat="51.9929573592" lon="-1.9112361968"><ele>91.46</ele><time>2015-02-04T10:32:08Z</time></trkpt><trkpt lat="51.9929130189" lon="-1.9112977199"><ele>90.50</ele><time>2015-02-04T10:32:14Z</time></trkpt><trkpt lat="51.9928370789" lon="-1.9114164915"><ele>90.02</ele><time>2015-02-04T10:32:25Z</time></trkpt><trkpt lat="51.9928203989" lon="-1.9114459958"><ele>89.54</ele><time>2015-02-04T10:32:27Z</time></trkpt><trkpt lat="51.9927004538" lon="-1.9116810244"><ele>88.58</ele><time>2015-02-04T10:32:44Z</time></trkpt><trkpt lat="51.9925646670" lon="-1.9118876383"><ele>87.62</ele><time>2015-02-04T10:33:00Z</time></trkpt><trkpt lat="51.9924590550" lon="-1.9121115189"><ele>87.14</ele><time>2015-02-04T10:33:17Z</time></trkpt><trkpt lat="51.9922992121" lon="-1.9123499002"><ele>87.14</ele><time>2015-02-04T10:33:36Z</time></trkpt><trkpt lat="51.9921948574" lon="-1.9125439413"><ele>87.14</ele><time>2015-02-04T10:33:51Z</time></trkpt><trkpt lat="51.9920763373" lon="-1.9127380662"><ele>87.62</ele><time>2015-02-04T10:34:08Z</time></trkpt><trkpt lat="51.9919587392" lon="-1.9128495455"><ele>86.66</ele><time>2015-02-04T10:34:27Z</time></trkpt><trkpt lat="51.9918745849" lon="-1.9129566662"><ele>86.66</ele><time>2015-02-04T10:34:44Z</time></trkpt><trkpt lat="51.9917504489" lon="-1.9131274056"><ele>85.21</ele><time>2015-02-04T10:35:05Z</time></trkpt><trkpt lat="51.9917347748" lon="-1.9131998252"><ele>85.21</ele><time>2015-02-04T10:35:24Z</time></trkpt><trkpt lat="51.9916749280" lon="-1.9132331852"><ele>85.21</ele><time>2015-02-04T10:35:51Z</time></trkpt><trkpt lat="51.9914352894" lon="-1.9133154955"><ele>84.25</ele><time>2015-02-04T10:36:12Z</time></trkpt><trkpt lat="51.9913025200" lon="-1.9133487716"><ele>84.25</ele><time>2015-02-04T10:36:29Z</time></trkpt><trkpt lat="51.9911603630" lon="-1.9134430680"><ele>84.73</ele><time>2015-02-04T10:36:45Z</time></trkpt><trkpt lat="51.9910172001" lon="-1.9135144819"><ele>84.25</ele><time>2015-02-04T10:37:02Z</time></trkpt><trkpt lat="51.9909081515" lon="-1.9136095326"><ele>84.25</ele><time>2015-02-04T10:37:22Z</time></trkpt><trkpt lat="51.9907269347" lon="-1.9137935154"><ele>83.77</ele><time>2015-02-04T10:37:43Z</time></trkpt><trkpt lat="51.9906428643" lon="-1.9137982931"><ele>84.73</ele><time>2015-02-04T10:37:59Z</time></trkpt><trkpt lat="51.9904704485" lon="-1.9138633367"><ele>84.73</ele><time>2015-02-04T10:38:18Z</time></trkpt><trkpt lat="51.9903916586" lon="-1.9138991274"><ele>84.73</ele><time>2015-02-04T10:38:26Z</time></trkpt><trkpt lat="51.9902301393" lon="-1.9139350858"><ele>84.73</ele><time>2015-02-04T10:38:43Z</time></trkpt><trkpt lat="51.9900592323" lon="-1.9139458146"><ele>84.73</ele><time>2015-02-04T10:39:01Z</time></trkpt><trkpt lat="51.9899120461" lon="-1.9139854610"><ele>84.73</ele><time>2015-02-04T10:39:21Z</time></trkpt><trkpt lat="51.9898045901" lon="-1.9139563758"><ele>85.21</ele><time>2015-02-04T10:39:40Z</time></trkpt><trkpt lat="51.9896555599" lon="-1.9139225967"><ele>85.21</ele><time>2015-02-04T10:39:58Z</time></trkpt><trkpt lat="51.9894936215" lon="-1.9137860555"><ele>85.21</ele><time>2015-02-04T10:40:17Z</time></trkpt><trkpt lat="51.9894079585" lon="-1.9136081077"><ele>85.21</ele><time>2015-02-04T10:40:35Z</time></trkpt><trkpt lat="51.9894772768" lon="-1.9133484364"><ele>85.21</ele><time>2015-02-04T10:40:54Z</time></trkpt><trkpt lat="51.9895282388" lon="-1.9130134955"><ele>86.18</ele><time>2015-02-04T10:41:16Z</time></trkpt><trkpt lat="51.9895466790" lon="-1.9128495455"><ele>86.66</ele><time>2015-02-04T10:41:31Z</time></trkpt><trkpt lat="51.9895698968" lon="-1.9125375710"><ele>87.14</ele><time>2015-02-04T10:41:50Z</time></trkpt><trkpt lat="51.9895794522" lon="-1.9124174584"><ele>87.62</ele><time>2015-02-04T10:42:08Z</time></trkpt><trkpt lat="51.9895922765" lon="-1.9123664964"><ele>87.62</ele><time>2015-02-04T10:42:27Z</time></trkpt><trkpt lat="51.9896467589" lon="-1.9123364054"><ele>87.62</ele><time>2015-02-04T10:42:44Z</time></trkpt><trkpt lat="51.9895601738" lon="-1.9123255927"><ele>87.14</ele><time>2015-02-04T10:42:58Z</time></trkpt><trkpt lat="51.9896343537" lon="-1.9123276044"><ele>87.62</ele><time>2015-02-04T10:43:14Z</time></trkpt><trkpt lat="51.9895713218" lon="-1.9123168755"><ele>89.06</ele><time>2015-02-04T10:43:28Z</time></trkpt><trkpt lat="51.9895327650" lon="-1.9123436138"><ele>87.14</ele><time>2015-02-04T10:43:44Z</time></trkpt><trkpt lat="51.9895496126" lon="-1.9123604614"><ele>87.14</ele><time>2015-02-04T10:44:00Z</time></trkpt><trkpt lat="51.9895458408" lon="-1.9123848528"><ele>88.10</ele><time>2015-02-04T10:44:24Z</time></trkpt><trkpt lat="51.9895559829" lon="-1.9123188872"><ele>87.62</ele><time>2015-02-04T10:44:39Z</time></trkpt><trkpt lat="51.9894928671" lon="-1.9122409355"><ele>88.10</ele><time>2015-02-04T10:44:59Z</time></trkpt><trkpt lat="51.9892736804" lon="-1.9121312164"><ele>89.06</ele><time>2015-02-04T10:45:23Z</time></trkpt><trkpt lat="51.9891852513" lon="-1.9120915700"><ele>89.06</ele><time>2015-02-04T10:45:30Z</time></trkpt><trkpt lat="51.9891512208" lon="-1.9120745547"><ele>89.54</ele><time>2015-02-04T10:45:32Z</time></trkpt><trkpt lat="51.9891022705" lon="-1.9120106846"><ele>89.54</ele><time>2015-02-04T10:45:47Z</time></trkpt><trkpt lat="51.9890845846" lon="-1.9118360896"><ele>90.02</ele><time>2015-02-04T10:45:59Z</time></trkpt><trkpt lat="51.9889992569" lon="-1.9115569722"><ele>89.06</ele><time>2015-02-04T10:46:18Z</time></trkpt><trkpt lat="51.9889379013" lon="-1.9113391265"><ele>89.06</ele><time>2015-02-04T10:46:39Z</time></trkpt><trkpt lat="51.9888120051" lon="-1.9110906869"><ele>90.02</ele><time>2015-02-04T10:46:58Z</time></trkpt><trkpt lat="51.9886966702" lon="-1.9109538943"><ele>89.54</ele><time>2015-02-04T10:47:18Z</time></trkpt><trkpt lat="51.9886413496" lon="-1.9109217916"><ele>90.02</ele><time>2015-02-04T10:47:42Z</time></trkpt><trkpt lat="51.9886048045" lon="-1.9108702429"><ele>90.50</ele><time>2015-02-04T10:48:00Z</time></trkpt><trkpt lat="51.9885662477" lon="-1.9108437560"><ele>90.50</ele><time>2015-02-04T10:48:19Z</time></trkpt><trkpt lat="51.9883311354" lon="-1.9107457716"><ele>91.46</ele><time>2015-02-04T10:48:37Z</time></trkpt><trkpt lat="51.9881344959" lon="-1.9107113220"><ele>93.87</ele><time>2015-02-04T10:48:58Z</time></trkpt><trkpt lat="51.9879212603" lon="-1.9106047042"><ele>94.35</ele><time>2015-02-04T10:49:16Z</time></trkpt><trkpt lat="51.9877763372" lon="-1.9104551710"><ele>95.31</ele><time>2015-02-04T10:49:34Z</time></trkpt><trkpt lat="51.9876247086" lon="-1.9101987686"><ele>96.27</ele><time>2015-02-04T10:49:54Z</time></trkpt><trkpt lat="51.9875160791" lon="-1.9101276901"><ele>97.23</ele><time>2015-02-04T10:50:08Z</time></trkpt><trkpt lat="51.9874264766" lon="-1.9100499060"><ele>98.19</ele><time>2015-02-04T10:50:22Z</time></trkpt><trkpt lat="51.9873984810" lon="-1.9100175519"><ele>98.67</ele><time>2015-02-04T10:50:38Z</time></trkpt><trkpt lat="51.9873911887" lon="-1.9100312144"><ele>99.15</ele><time>2015-02-04T10:50:58Z</time></trkpt><trkpt lat="51.9873522129" lon="-1.9099012949"><ele>99.63</ele><time>2015-02-04T10:51:13Z</time></trkpt><trkpt lat="51.9873280730" lon="-1.9097279571"><ele>100.11</ele><time>2015-02-04T10:51:22Z</time></trkpt><trkpt lat="51.9872871693" lon="-1.9094627537"><ele>99.63</ele><time>2015-02-04T10:51:38Z</time></trkpt><trkpt lat="51.9872264005" lon="-1.9091587421"><ele>100.11</ele><time>2015-02-04T10:51:59Z</time></trkpt><trkpt lat="51.9871797971" lon="-1.9088619389"><ele>100.11</ele><time>2015-02-04T10:52:17Z</time></trkpt><trkpt lat="51.9871461019" lon="-1.9085735176"><ele>100.60</ele><time>2015-02-04T10:52:35Z</time></trkpt><trkpt lat="51.9871322718" lon="-1.9083695021"><ele>101.08</ele><time>2015-02-04T10:52:49Z</time></trkpt><trkpt lat="51.9871058688" lon="-1.9081181288"><ele>101.56</ele><time>2015-02-04T10:53:05Z</time></trkpt><trkpt lat="51.9870331977" lon="-1.9078499917"><ele>102.04</ele><time>2015-02-04T10:53:23Z</time></trkpt><trkpt lat="51.9869564194" lon="-1.9076392706"><ele>102.04</ele><time>2015-02-04T10:53:44Z</time></trkpt><trkpt lat="51.9869082235" lon="-1.9074157253"><ele>104.44</ele><time>2015-02-04T10:54:05Z</time></trkpt><trkpt lat="51.9868713431" lon="-1.9071290642"><ele>105.40</ele><time>2015-02-04T10:54:25Z</time></trkpt><trkpt lat="51.9868587703" lon="-1.9068571553"><ele>105.88</ele><time>2015-02-04T10:54:41Z</time></trkpt><trkpt lat="51.9868187048" lon="-1.9065543171"><ele>107.32</ele><time>2015-02-04T10:55:00Z</time></trkpt><trkpt lat="51.9867978338" lon="-1.9062775467"><ele>107.32</ele><time>2015-02-04T10:55:18Z</time></trkpt><trkpt lat="51.9867714308" lon="-1.9060229044"><ele>108.29</ele><time>2015-02-04T10:55:35Z</time></trkpt><trkpt lat="51.9867564272" lon="-1.9058385026"><ele>108.77</ele><time>2015-02-04T10:55:50Z</time></trkpt><trkpt lat="51.9867563434" lon="-1.9056675117"><ele>109.25</ele><time>2015-02-04T10:56:07Z</time></trkpt><trkpt lat="51.9867852610" lon="-1.9054256938"><ele>109.73</ele><time>2015-02-04T10:56:23Z</time></trkpt><trkpt lat="51.9867807347" lon="-1.9053460658"><ele>110.21</ele><time>2015-02-04T10:56:28Z</time></trkpt><trkpt lat="51.9868240692" lon="-1.9049992226"><ele>111.65</ele><time>2015-02-04T10:56:47Z</time></trkpt><trkpt lat="51.9868508913" lon="-1.9047854841"><ele>112.61</ele><time>2015-02-04T10:57:03Z</time></trkpt><trkpt lat="51.9868734386" lon="-1.9045245554"><ele>113.09</ele><time>2015-02-04T10:57:20Z</time></trkpt><trkpt lat="51.9868714269" lon="-1.9042813964"><ele>114.53</ele><time>2015-02-04T10:57:37Z</time></trkpt><trkpt lat="51.9869108219" lon="-1.9040553365"><ele>115.01</ele><time>2015-02-04T10:57:54Z</time></trkpt><trkpt lat="51.9869525637" lon="-1.9038549252"><ele>115.98</ele><time>2015-02-04T10:58:10Z</time></trkpt><trkpt lat="51.9869623706" lon="-1.9036364928"><ele>117.90</ele><time>2015-02-04T10:58:27Z</time></trkpt><trkpt lat="51.9869809784" lon="-1.9033728819"><ele>119.34</ele><time>2015-02-04T10:58:45Z</time></trkpt><trkpt lat="51.9869795535" lon="-1.9031521864"><ele>120.30</ele><time>2015-02-04T10:59:01Z</time></trkpt><trkpt lat="51.9870166015" lon="-1.9029243663"><ele>122.22</ele><time>2015-02-04T10:59:20Z</time></trkpt><trkpt lat="51.9870103151" lon="-1.9028993882"><ele>121.74</ele><time>2015-02-04T10:59:41Z</time></trkpt><trkpt lat="51.9870037772" lon="-1.9027891662"><ele>122.71</ele><time>2015-02-04T11:00:00Z</time></trkpt><trkpt lat="51.9870133325" lon="-1.9025506172"><ele>124.15</ele><time>2015-02-04T11:00:15Z</time></trkpt><trkpt lat="51.9870172720" lon="-1.9023297541"><ele>125.59</ele><time>2015-02-04T11:00:30Z</time></trkpt><trkpt lat="51.9870210439" lon="-1.9022123236"><ele>126.55</ele><time>2015-02-04T11:00:45Z</time></trkpt><trkpt lat="51.9870009273" lon="-1.9020603597"><ele>127.99</ele><time>2015-02-04T11:01:02Z</time></trkpt><trkpt lat="51.9870004244" lon="-1.9018859323"><ele>128.95</ele><time>2015-02-04T11:01:18Z</time></trkpt><trkpt lat="51.9870615285" lon="-1.9017718546"><ele>130.88</ele><time>2015-02-04T11:01:33Z</time></trkpt><trkpt lat="51.9870600197" lon="-1.9017250836"><ele>130.88</ele><time>2015-02-04T11:01:39Z</time></trkpt><trkpt lat="51.9870512187" lon="-1.9015146978"><ele>132.80</ele><time>2015-02-04T11:01:53Z</time></trkpt><trkpt lat="51.9870482851" lon="-1.9015493989"><ele>132.80</ele><time>2015-02-04T11:01:56Z</time></trkpt><trkpt lat="51.9870705809" lon="-1.9016742893"><ele>131.84</ele><time>2015-02-04T11:02:02Z</time></trkpt><trkpt lat="51.9872286636" lon="-1.9016832579"><ele>133.76</ele><time>2015-02-04T11:02:21Z</time></trkpt><trkpt lat="51.9872455951" lon="-1.9016911369"><ele>134.24</ele><time>2015-02-04T11:02:39Z</time></trkpt><trkpt lat="51.9872379676" lon="-1.9016865268"><ele>134.24</ele><time>2015-02-04T11:02:59Z</time></trkpt><trkpt lat="51.9872296695" lon="-1.9017099962"><ele>133.76</ele><time>2015-02-04T11:03:16Z</time></trkpt><trkpt lat="51.9872262329" lon="-1.9017146900"><ele>133.76</ele><time>2015-02-04T11:03:32Z</time></trkpt><trkpt lat="51.9872301724" lon="-1.9017110020"><ele>134.24</ele><time>2015-02-04T11:03:59Z</time></trkpt><trkpt lat="51.9872368779" lon="-1.9017106667"><ele>134.24</ele><time>2015-02-04T11:04:24Z</time></trkpt><trkpt lat="51.9872485287" lon="-1.9017103314"><ele>134.24</ele><time>2015-02-04T11:04:53Z</time></trkpt><trkpt lat="51.9872414041" lon="-1.9017081521"><ele>134.72</ele><time>2015-02-04T11:05:16Z</time></trkpt><trkpt lat="51.9872415718" lon="-1.9017033745"><ele>133.28</ele><time>2015-02-04T11:05:32Z</time></trkpt><trkpt lat="51.9872426614" lon="-1.9017035421"><ele>134.72</ele><time>2015-02-04T11:05:33Z</time></trkpt><trkpt lat="51.9872431643" lon="-1.9016989321"><ele>133.28</ele><time>2015-02-04T11:06:00Z</time></trkpt><trkpt lat="51.9872431643" lon="-1.9017016143"><ele>134.24</ele><time>2015-02-04T11:06:26Z</time></trkpt><trkpt lat="51.9872398116" lon="-1.9016985968"><ele>134.24</ele><time>2015-02-04T11:06:56Z</time></trkpt><trkpt lat="51.9872451760" lon="-1.9016966689"><ele>134.24</ele><time>2015-02-04T11:07:20Z</time></trkpt><trkpt lat="51.9872455113" lon="-1.9016970880"><ele>135.20</ele><time>2015-02-04T11:07:24Z</time></trkpt><trkpt lat="51.9872455951" lon="-1.9016892090"><ele>134.24</ele><time>2015-02-04T11:07:55Z</time></trkpt><trkpt lat="51.9872719981" lon="-1.9016858563"><ele>134.72</ele><time>2015-02-04T11:08:16Z</time></trkpt><trkpt lat="51.9872654602" lon="-1.9016802404"><ele>134.24</ele><time>2015-02-04T11:08:44Z</time></trkpt><trkpt lat="51.9872626103" lon="-1.9016813301"><ele>133.76</ele><time>2015-02-04T11:09:07Z</time></trkpt><trkpt lat="51.9872494508" lon="-1.9016939867"><ele>134.24</ele><time>2015-02-04T11:09:28Z</time></trkpt><trkpt lat="51.9872433320" lon="-1.9017082360"><ele>134.24</ele><time>2015-02-04T11:09:57Z</time></trkpt><trkpt lat="51.9872440863" lon="-1.9017051347"><ele>134.72</ele><time>2015-02-04T11:10:20Z</time></trkpt><trkpt lat="51.9872413203" lon="-1.9017059729"><ele>133.28</ele><time>2015-02-04T11:10:42Z</time></trkpt><trkpt lat="51.9872389734" lon="-1.9017006923"><ele>134.24</ele><time>2015-02-04T11:11:00Z</time></trkpt><trkpt lat="51.9872419909" lon="-1.9016944058"><ele>134.24</ele><time>2015-02-04T11:11:17Z</time></trkpt><trkpt lat="51.9870812260" lon="-1.9016885385"><ele>132.32</ele><time>2015-02-04T11:11:35Z</time></trkpt><trkpt lat="51.9870425854" lon="-1.9015168771"><ele>133.76</ele><time>2015-02-04T11:11:48Z</time></trkpt><trkpt lat="51.9870915357" lon="-1.9014033861"><ele>135.20</ele><time>2015-02-04T11:12:06Z</time></trkpt><trkpt lat="51.9871184416" lon="-1.9013633206"><ele>135.68</ele><time>2015-02-04T11:12:20Z</time></trkpt><trkpt lat="51.9871323556" lon="-1.9013291225"><ele>135.68</ele><time>2015-02-04T11:12:25Z</time></trkpt><trkpt lat="51.9871900231" lon="-1.9011488277"><ele>137.61</ele><time>2015-02-04T11:12:39Z</time></trkpt><trkpt lat="51.9872370455" lon="-1.9009997137"><ele>140.97</ele><time>2015-02-04T11:12:57Z</time></trkpt><trkpt lat="51.9873015862" lon="-1.9008607417"><ele>141.93</ele><time>2015-02-04T11:13:13Z</time></trkpt><trkpt lat="51.9873283245" lon="-1.9007504359"><ele>142.41</ele><time>2015-02-04T11:13:28Z</time></trkpt><trkpt lat="51.9873827230" lon="-1.9005819596"><ele>144.82</ele><time>2015-02-04T11:13:44Z</time></trkpt><trkpt lat="51.9873906020" lon="-1.9005418941"><ele>145.78</ele><time>2015-02-04T11:13:52Z</time></trkpt><trkpt lat="51.9874320086" lon="-1.9004839752"><ele>146.74</ele><time>2015-02-04T11:14:11Z</time></trkpt><trkpt lat="51.9874463417" lon="-1.9004729111"><ele>147.22</ele><time>2015-02-04T11:14:29Z</time></trkpt><trkpt lat="51.9875137322" lon="-1.9003129844"><ele>148.66</ele><time>2015-02-04T11:14:45Z</time></trkpt><trkpt lat="51.9875308312" lon="-1.9003116433"><ele>150.58</ele><time>2015-02-04T11:15:04Z</time></trkpt><trkpt lat="51.9875461701" lon="-1.9003078714"><ele>150.10</ele><time>2015-02-04T11:15:31Z</time></trkpt><trkpt lat="51.9875497743" lon="-1.9003136549"><ele>150.58</ele><time>2015-02-04T11:15:54Z</time></trkpt><trkpt lat="51.9875397161" lon="-1.9003268983"><ele>150.58</ele><time>2015-02-04T11:16:23Z</time></trkpt><trkpt lat="51.9875472598" lon="-1.9003278203"><ele>151.06</ele><time>2015-02-04T11:16:48Z</time></trkpt><trkpt lat="51.9875809550" lon="-1.9002837315"><ele>150.10</ele><time>2015-02-04T11:17:06Z</time></trkpt><trkpt lat="51.9876279775" lon="-1.9001701567"><ele>152.99</ele><time>2015-02-04T11:17:20Z</time></trkpt><trkpt lat="51.9876670372" lon="-1.8999565858"><ele>154.91</ele><time>2015-02-04T11:17:37Z</time></trkpt><trkpt lat="51.9877722301" lon="-1.8997321185"><ele>156.83</ele><time>2015-02-04T11:17:53Z</time></trkpt><trkpt lat="51.9878492597" lon="-1.8995453697"><ele>159.72</ele><time>2015-02-04T11:18:08Z</time></trkpt><trkpt lat="51.9879498426" lon="-1.8993536755"><ele>161.16</ele><time>2015-02-04T11:18:20Z</time></trkpt><trkpt lat="51.9879884832" lon="-1.8991300464"><ele>163.56</ele><time>2015-02-04T11:18:37Z</time></trkpt><trkpt lat="51.9879821967" lon="-1.8991121929"><ele>163.56</ele><time>2015-02-04T11:19:03Z</time></trkpt><trkpt lat="51.9879823644" lon="-1.8990705349"><ele>166.45</ele><time>2015-02-04T11:19:21Z</time></trkpt><trkpt lat="51.9880084321" lon="-1.8989476562"><ele>167.41</ele><time>2015-02-04T11:19:39Z</time></trkpt><trkpt lat="51.9880097732" lon="-1.8987393659"><ele>168.37</ele><time>2015-02-04T11:19:53Z</time></trkpt><trkpt lat="51.9880203344" lon="-1.8985609990"><ele>170.29</ele><time>2015-02-04T11:20:12Z</time></trkpt><trkpt lat="51.9880704582" lon="-1.8984616734"><ele>171.25</ele><time>2015-02-04T11:20:33Z</time></trkpt><trkpt lat="51.9880668540" lon="-1.8983610068"><ele>171.73</ele><time>2015-02-04T11:20:51Z</time></trkpt><trkpt lat="51.9879934285" lon="-1.8982946221"><ele>171.73</ele><time>2015-02-04T11:21:27Z</time></trkpt><trkpt lat="51.9879960269" lon="-1.8983042613"><ele>172.21</ele><time>2015-02-04T11:21:47Z</time></trkpt><trkpt lat="51.9880223460" lon="-1.8982365355"><ele>173.17</ele><time>2015-02-04T11:22:04Z</time></trkpt><trkpt lat="51.9879736472" lon="-1.8979993276"><ele>174.62</ele><time>2015-02-04T11:22:20Z</time></trkpt><trkpt lat="51.9879247807" lon="-1.8977505527"><ele>173.17</ele><time>2015-02-04T11:22:39Z</time></trkpt><trkpt lat="51.9878744893" lon="-1.8975800648"><ele>174.14</ele><time>2015-02-04T11:22:59Z</time></trkpt><trkpt lat="51.9878735673" lon="-1.8975860160"><ele>173.17</ele><time>2015-02-04T11:23:28Z</time></trkpt><trkpt lat="51.9878714718" lon="-1.8976006005"><ele>173.66</ele><time>2015-02-04T11:24:03Z</time></trkpt><trkpt lat="51.9878765848" lon="-1.8974853493"><ele>173.66</ele><time>2015-02-04T11:24:27Z</time></trkpt><trkpt lat="51.9879197516" lon="-1.8973082397"><ele>173.17</ele><time>2015-02-04T11:24:43Z</time></trkpt><trkpt lat="51.9879612420" lon="-1.8972944934"><ele>172.69</ele><time>2015-02-04T11:25:01Z</time></trkpt><trkpt lat="51.9879946858" lon="-1.8970504962"><ele>173.66</ele><time>2015-02-04T11:25:22Z</time></trkpt><trkpt lat="51.9880754873" lon="-1.8969765678"><ele>173.66</ele><time>2015-02-04T11:25:36Z</time></trkpt><trkpt lat="51.9881245214" lon="-1.8968017213"><ele>173.17</ele><time>2015-02-04T11:26:01Z</time></trkpt><trkpt lat="51.9881720468" lon="-1.8966278806"><ele>174.14</ele><time>2015-02-04T11:26:19Z</time></trkpt><trkpt lat="51.9882021379" lon="-1.8965872284"><ele>174.62</ele><time>2015-02-04T11:26:42Z</time></trkpt><trkpt lat="51.9882169738" lon="-1.8965750746"><ele>174.62</ele><time>2015-02-04T11:27:06Z</time></trkpt><trkpt lat="51.9882152975" lon="-1.8965708837"><ele>174.14</ele><time>2015-02-04T11:27:17Z</time></trkpt><trkpt lat="51.9882493280" lon="-1.8964775931"><ele>174.14</ele><time>2015-02-04T11:27:34Z</time></trkpt><trkpt lat="51.9883305486" lon="-1.8961834721"><ele>174.62</ele><time>2015-02-04T11:27:48Z</time></trkpt><trkpt lat="51.9884188939" lon="-1.8960341904"><ele>174.62</ele><time>2015-02-04T11:28:06Z</time></trkpt><trkpt lat="51.9884197321" lon="-1.8960428238"><ele>173.66</ele><time>2015-02-04T11:28:27Z</time></trkpt><trkpt lat="51.9884437043" lon="-1.8960121460"><ele>174.14</ele><time>2015-02-04T11:28:33Z</time></trkpt><trkpt lat="51.9884892181" lon="-1.8960372917"><ele>175.10</ele><time>2015-02-04T11:28:47Z</time></trkpt><trkpt lat="51.9885545969" lon="-1.8959031813"><ele>175.58</ele><time>2015-02-04T11:29:04Z</time></trkpt><trkpt lat="51.9885556865" lon="-1.8958253134"><ele>174.14</ele><time>2015-02-04T11:29:06Z</time></trkpt><trkpt lat="51.9885250926" lon="-1.8956992496"><ele>174.14</ele><time>2015-02-04T11:29:25Z</time></trkpt><trkpt lat="51.9885568600" lon="-1.8954773806"><ele>173.17</ele><time>2015-02-04T11:29:43Z</time></trkpt><trkpt lat="51.9887084048" lon="-1.8949463870"><ele>172.21</ele><time>2015-02-04T11:30:04Z</time></trkpt><trkpt lat="51.9887455367" lon="-1.8947412819"><ele>170.29</ele><time>2015-02-04T11:30:22Z</time></trkpt><trkpt lat="51.9890088122" lon="-1.8944666907"><ele>167.89</ele><time>2015-02-04T11:30:40Z</time></trkpt><trkpt lat="51.9891556632" lon="-1.8943000585"><ele>168.37</ele><time>2015-02-04T11:30:57Z</time></trkpt><trkpt lat="51.9891844969" lon="-1.8941822927"><ele>167.89</ele><time>2015-02-04T11:31:16Z</time></trkpt><trkpt lat="51.9893286657" lon="-1.8939004093"><ele>168.85</ele><time>2015-02-04T11:31:34Z</time></trkpt><trkpt lat="51.9894928671" lon="-1.8936803844"><ele>171.25</ele><time>2015-02-04T11:31:53Z</time></trkpt><trkpt lat="51.9896690547" lon="-1.8934477028"><ele>172.69</ele><time>2015-02-04T11:32:10Z</time></trkpt><trkpt lat="51.9897689670" lon="-1.8931851815"><ele>174.14</ele><time>2015-02-04T11:32:29Z</time></trkpt><trkpt lat="51.9897918496" lon="-1.8930571899"><ele>175.58</ele><time>2015-02-04T11:32:45Z</time></trkpt><trkpt lat="51.9898954500" lon="-1.8927990273"><ele>177.02</ele><time>2015-02-04T11:33:01Z</time></trkpt><trkpt lat="51.9899431430" lon="-1.8926582113"><ele>178.46</ele><time>2015-02-04T11:33:18Z</time></trkpt><trkpt lat="51.9900132157" lon="-1.8924795929"><ele>180.87</ele><time>2015-02-04T11:33:35Z</time></trkpt><trkpt lat="51.9899877347" lon="-1.8923457339"><ele>180.87</ele><time>2015-02-04T11:33:48Z</time></trkpt><trkpt lat="51.9899194222" lon="-1.8920343462"><ele>182.31</ele><time>2015-02-04T11:34:05Z</time></trkpt><trkpt lat="51.9899012335" lon="-1.8918641936"><ele>184.71</ele><time>2015-02-04T11:34:19Z</time></trkpt><trkpt lat="51.9898954500" lon="-1.8917046022"><ele>186.15</ele><time>2015-02-04T11:34:38Z</time></trkpt><trkpt lat="51.9898370281" lon="-1.8917106371"><ele>185.19</ele><time>2015-02-04T11:35:02Z</time></trkpt><trkpt lat="51.9898515288" lon="-1.8917733338"><ele>185.67</ele><time>2015-02-04T11:35:21Z</time></trkpt><trkpt lat="51.9898988865" lon="-1.8919311650"><ele>182.31</ele><time>2015-02-04T11:35:37Z</time></trkpt><trkpt lat="51.9898796082" lon="-1.8923197500"><ele>180.87</ele><time>2015-02-04T11:35:55Z</time></trkpt><trkpt lat="51.9899686240" lon="-1.8923706282"><ele>181.35</ele><time>2015-02-04T11:36:10Z</time></trkpt><trkpt lat="51.9900526945" lon="-1.8922761641"><ele>182.31</ele><time>2015-02-04T11:36:16Z</time></trkpt><trkpt lat="51.9901640061" lon="-1.8921221048"><ele>182.79</ele><time>2015-02-04T11:36:25Z</time></trkpt><trkpt lat="51.9902930036" lon="-1.8919702247"><ele>184.23</ele><time>2015-02-04T11:36:39Z</time></trkpt><trkpt lat="51.9903543591" lon="-1.8918706477"><ele>185.67</ele><time>2015-02-04T11:36:52Z</time></trkpt><trkpt lat="51.9903959334" lon="-1.8918335158"><ele>186.63</ele><time>2015-02-04T11:36:59Z</time></trkpt><trkpt lat="51.9905078318" lon="-1.8917590007"><ele>187.11</ele><time>2015-02-04T11:37:13Z</time></trkpt><trkpt lat="51.9905899744" lon="-1.8917070329"><ele>188.08</ele><time>2015-02-04T11:37:21Z</time></trkpt><trkpt lat="51.9907141943" lon="-1.8916286621"><ele>189.52</ele><time>2015-02-04T11:37:38Z</time></trkpt><trkpt lat="51.9908186328" lon="-1.8916020915"><ele>189.52</ele><time>2015-02-04T11:37:47Z</time></trkpt><trkpt lat="51.9908998534" lon="-1.8915372994"><ele>190.96</ele><time>2015-02-04T11:37:59Z</time></trkpt><trkpt lat="51.9909177907" lon="-1.8915348686"><ele>190.96</ele><time>2015-02-04T11:38:00Z</time></trkpt><trkpt lat="51.9909933116" lon="-1.8915315997"><ele>191.44</ele><time>2015-02-04T11:38:13Z</time></trkpt><trkpt lat="51.9910134282" lon="-1.8915420771"><ele>190.48</ele><time>2015-02-04T11:38:27Z</time></trkpt><trkpt lat="51.9909899589" lon="-1.8915608525"><ele>190.48</ele><time>2015-02-04T11:38:44Z</time></trkpt><trkpt lat="51.9909752905" lon="-1.8915675581"><ele>190.48</ele><time>2015-02-04T11:39:09Z</time></trkpt><trkpt lat="51.9910077285" lon="-1.8914977368"><ele>190.48</ele><time>2015-02-04T11:39:19Z</time></trkpt><trkpt lat="51.9910788070" lon="-1.8914559111"><ele>190.96</ele><time>2015-02-04T11:39:29Z</time></trkpt><trkpt lat="51.9911103230" lon="-1.8914015964"><ele>192.40</ele><time>2015-02-04T11:39:40Z</time></trkpt><trkpt lat="51.9911612011" lon="-1.8913234770"><ele>193.36</ele><time>2015-02-04T11:39:48Z</time></trkpt><trkpt lat="51.9912814815" lon="-1.8912589364"><ele>195.28</ele><time>2015-02-04T11:39:59Z</time></trkpt><trkpt lat="51.9915286638" lon="-1.8911805656"><ele>196.73</ele><time>2015-02-04T11:40:13Z</time></trkpt><trkpt lat="51.9916589186" lon="-1.8910417613"><ele>198.65</ele><time>2015-02-04T11:40:25Z</time></trkpt><trkpt lat="51.9917388819" lon="-1.8908923957"><ele>199.61</ele><time>2015-02-04T11:40:38Z</time></trkpt><trkpt lat="51.9918431528" lon="-1.8907251768"><ele>201.05</ele><time>2015-02-04T11:40:52Z</time></trkpt><trkpt lat="51.9919341803" lon="-1.8905831035"><ele>202.49</ele><time>2015-02-04T11:41:05Z</time></trkpt><trkpt lat="51.9919818733" lon="-1.8904966023"><ele>203.46</ele><time>2015-02-04T11:41:17Z</time></trkpt><trkpt lat="51.9920088630" lon="-1.8904484902"><ele>203.46</ele><time>2015-02-04T11:41:30Z</time></trkpt><trkpt lat="51.9920426421" lon="-1.8904208299"><ele>204.42</ele><time>2015-02-04T11:41:45Z</time></trkpt><trkpt lat="51.9920660276" lon="-1.8904077541"><ele>204.90</ele><time>2015-02-04T11:42:01Z</time></trkpt><trkpt lat="51.9920995552" lon="-1.8903564569"><ele>205.86</ele><time>2015-02-04T11:42:17Z</time></trkpt><trkpt lat="51.9921355974" lon="-1.8902811874"><ele>207.30</ele><time>2015-02-04T11:42:31Z</time></trkpt><trkpt lat="51.9921728130" lon="-1.8902630825"><ele>208.26</ele><time>2015-02-04T11:42:49Z</time></trkpt><trkpt lat="51.9922417123" lon="-1.8901949376"><ele>209.70</ele><time>2015-02-04T11:43:06Z</time></trkpt><trkpt lat="51.9922526926" lon="-1.8901367672"><ele>210.19</ele><time>2015-02-04T11:43:24Z</time></trkpt><trkpt lat="51.9922707975" lon="-1.8901050836"><ele>210.67</ele><time>2015-02-04T11:43:39Z</time></trkpt><trkpt lat="51.9922920037" lon="-1.8900350109"><ele>211.15</ele><time>2015-02-04T11:43:54Z</time></trkpt><trkpt lat="51.9923184905" lon="-1.8899859767"><ele>212.11</ele><time>2015-02-04T11:44:06Z</time></trkpt><trkpt lat="51.9923305605" lon="-1.8899642676"><ele>212.59</ele><time>2015-02-04T11:44:24Z</time></trkpt><trkpt lat="51.9923302252" lon="-1.8899574783"><ele>212.11</ele><time>2015-02-04T11:44:52Z</time></trkpt><trkpt lat="51.9923991244" lon="-1.8898551352"><ele>213.07</ele><time>2015-02-04T11:45:13Z</time></trkpt><trkpt lat="51.9924796745" lon="-1.8897666223"><ele>213.55</ele><time>2015-02-04T11:45:23Z</time></trkpt><trkpt lat="51.9925510883" lon="-1.8897247966"><ele>215.47</ele><time>2015-02-04T11:45:36Z</time></trkpt><trkpt lat="51.9926087558" lon="-1.8896049354"><ele>216.91</ele><time>2015-02-04T11:45:51Z</time></trkpt><trkpt lat="51.9926615618" lon="-1.8894663826"><ele>217.88</ele><time>2015-02-04T11:46:06Z</time></trkpt><trkpt lat="51.9927224144" lon="-1.8892928772"><ele>218.84</ele><time>2015-02-04T11:46:25Z</time></trkpt><trkpt lat="51.9927734602" lon="-1.8891949765"><ele>219.80</ele><time>2015-02-04T11:46:36Z</time></trkpt><trkpt lat="51.9928541780" lon="-1.8890917953"><ele>221.24</ele><time>2015-02-04T11:46:48Z</time></trkpt><trkpt lat="51.9928657450" lon="-1.8890891969"><ele>221.24</ele><time>2015-02-04T11:47:03Z</time></trkpt><trkpt lat="51.9928517472" lon="-1.8891195394"><ele>221.24</ele><time>2015-02-04T11:47:28Z</time></trkpt><trkpt lat="51.9928743783" lon="-1.8890882749"><ele>223.16</ele><time>2015-02-04T11:47:42Z</time></trkpt><trkpt lat="51.9929146115" lon="-1.8889776338"><ele>224.61</ele><time>2015-02-04T11:47:58Z</time></trkpt><trkpt lat="51.9929351471" lon="-1.8888972513"><ele>225.57</ele><time>2015-02-04T11:48:18Z</time></trkpt><trkpt lat="51.9929856062" lon="-1.8888437748"><ele>226.53</ele><time>2015-02-04T11:48:31Z</time></trkpt><trkpt lat="51.9930294435" lon="-1.8887438625"><ele>227.49</ele><time>2015-02-04T11:48:43Z</time></trkpt><trkpt lat="51.9930549245" lon="-1.8886978459"><ele>227.97</ele><time>2015-02-04T11:48:56Z</time></trkpt><trkpt lat="51.9930413458" lon="-1.8886872847"><ele>227.97</ele><time>2015-02-04T11:49:19Z</time></trkpt><trkpt lat="51.9930768013" lon="-1.8886761367"><ele>228.45</ele><time>2015-02-04T11:49:31Z</time></trkpt><trkpt lat="51.9931372348" lon="-1.8885898869"><ele>230.37</ele><time>2015-02-04T11:49:44Z</time></trkpt><trkpt lat="51.9931949861" lon="-1.8884673435"><ele>231.33</ele><time>2015-02-04T11:49:58Z</time></trkpt><trkpt lat="51.9932178687" lon="-1.8883862067"><ele>232.30</ele><time>2015-02-04T11:50:10Z</time></trkpt><trkpt lat="51.9932254963" lon="-1.8883515894"><ele>232.78</ele><time>2015-02-04T11:50:28Z</time></trkpt><trkpt lat="51.9932720996" lon="-1.8883133680"><ele>233.26</ele><time>2015-02-04T11:50:47Z</time></trkpt><trkpt lat="51.9933057111" lon="-1.8882704526"><ele>234.22</ele><time>2015-02-04T11:50:57Z</time></trkpt><trkpt lat="51.9934147596" lon="-1.8880916666"><ele>235.18</ele><time>2015-02-04T11:51:10Z</time></trkpt><trkpt lat="51.9934987463" lon="-1.8879271299"><ele>235.18</ele><time>2015-02-04T11:51:23Z</time></trkpt><trkpt lat="51.9935310166" lon="-1.8878374435"><ele>237.10</ele><time>2015-02-04T11:51:35Z</time></trkpt><trkpt lat="51.9935802184" lon="-1.8877423927"><ele>238.06</ele><time>2015-02-04T11:51:49Z</time></trkpt><trkpt lat="51.9936055318" lon="-1.8877052609"><ele>241.43</ele><time>2015-02-04T11:51:58Z</time></trkpt><trkpt lat="51.9936067052" lon="-1.8877050932"><ele>238.06</ele><time>2015-02-04T11:51:59Z</time></trkpt><trkpt lat="51.9936222956" lon="-1.8876708951"><ele>238.06</ele><time>2015-02-04T11:52:24Z</time></trkpt><trkpt lat="51.9936771970" lon="-1.8876072764"><ele>239.02</ele><time>2015-02-04T11:52:42Z</time></trkpt><trkpt lat="51.9937630277" lon="-1.8874874152"><ele>239.51</ele><time>2015-02-04T11:52:56Z</time></trkpt><trkpt lat="51.9938412309" lon="-1.8873613514"><ele>241.43</ele><time>2015-02-04T11:53:12Z</time></trkpt><trkpt lat="51.9938851520" lon="-1.8873291649"><ele>242.87</ele><time>2015-02-04T11:53:27Z</time></trkpt><trkpt lat="51.9939282350" lon="-1.8872960564"><ele>243.83</ele><time>2015-02-04T11:53:43Z</time></trkpt><trkpt lat="51.9939355273" lon="-1.8872425798"><ele>243.83</ele><time>2015-02-04T11:54:06Z</time></trkpt><trkpt lat="51.9939891715" lon="-1.8871711660"><ele>242.39</ele><time>2015-02-04T11:54:19Z</time></trkpt><trkpt lat="51.9939956255" lon="-1.8871615268"><ele>245.27</ele><time>2015-02-04T11:54:20Z</time></trkpt><trkpt lat="51.9940935262" lon="-1.8870787974"><ele>245.75</ele><time>2015-02-04T11:54:35Z</time></trkpt><trkpt lat="51.9941997249" lon="-1.8869348802"><ele>247.68</ele><time>2015-02-04T11:54:49Z</time></trkpt><trkpt lat="51.9942557998" lon="-1.8868487980"><ele>249.12</ele><time>2015-02-04T11:55:03Z</time></trkpt><trkpt lat="51.9942532014" lon="-1.8868390750"><ele>249.60</ele><time>2015-02-04T11:55:34Z</time></trkpt><trkpt lat="51.9942564704" lon="-1.8868341297"><ele>249.60</ele><time>2015-02-04T11:55:59Z</time></trkpt><trkpt lat="51.9942511059" lon="-1.8868302740"><ele>249.12</ele><time>2015-02-04T11:56:19Z</time></trkpt><trkpt lat="51.9942545425" lon="-1.8868299387"><ele>249.60</ele><time>2015-02-04T11:56:32Z</time></trkpt><trkpt lat="51.9942572247" lon="-1.8868302740"><ele>249.12</ele><time>2015-02-04T11:56:47Z</time></trkpt><trkpt lat="51.9942637626" lon="-1.8868399970"><ele>249.60</ele><time>2015-02-04T11:57:03Z</time></trkpt><trkpt lat="51.9942931831" lon="-1.8868322857"><ele>251.04</ele><time>2015-02-04T11:57:20Z</time></trkpt><trkpt lat="51.9943737332" lon="-1.8868243229"><ele>252.00</ele><time>2015-02-04T11:57:34Z</time></trkpt><trkpt lat="51.9944795966" lon="-1.8867995124"><ele>253.44</ele><time>2015-02-04T11:57:49Z</time></trkpt><trkpt lat="51.9945378508" lon="-1.8867967464"><ele>253.93</ele><time>2015-02-04T11:58:05Z</time></trkpt><trkpt lat="51.9945926685" lon="-1.8867881130"><ele>254.89</ele><time>2015-02-04T11:58:19Z</time></trkpt><trkpt lat="51.9946067501" lon="-1.8867900409"><ele>255.37</ele><time>2015-02-04T11:58:22Z</time></trkpt><trkpt lat="51.9947375078" lon="-1.8867363129"><ele>256.33</ele><time>2015-02-04T11:58:36Z</time></trkpt><trkpt lat="51.9948359951" lon="-1.8867395818"><ele>257.77</ele><time>2015-02-04T11:58:51Z</time></trkpt><trkpt lat="51.9948955905" lon="-1.8867426831"><ele>258.73</ele><time>2015-02-04T11:59:06Z</time></trkpt><trkpt lat="51.9949790742" lon="-1.8867223989"><ele>259.21</ele><time>2015-02-04T11:59:22Z</time></trkpt><trkpt lat="51.9949673396" lon="-1.8867291883"><ele>259.21</ele><time>2015-02-04T11:59:38Z</time></trkpt><trkpt lat="51.9949820079" lon="-1.8867222313"><ele>259.21</ele><time>2015-02-04T11:59:49Z</time></trkpt><trkpt lat="51.9950307067" lon="-1.8867111672"><ele>261.14</ele><time>2015-02-04T12:00:05Z</time></trkpt><trkpt lat="51.9951530825" lon="-1.8867436890"><ele>262.58</ele><time>2015-02-04T12:00:20Z</time></trkpt><trkpt lat="51.9952005241" lon="-1.8867560104"><ele>263.54</ele><time>2015-02-04T12:00:36Z</time></trkpt><trkpt lat="51.9952178746" lon="-1.8867741153"><ele>264.02</ele><time>2015-02-04T12:01:04Z</time></trkpt><trkpt lat="51.9952633884" lon="-1.8867799826"><ele>264.98</ele><time>2015-02-04T12:01:18Z</time></trkpt><trkpt lat="51.9952934794" lon="-1.8867800664"><ele>265.94</ele><time>2015-02-04T12:01:37Z</time></trkpt><trkpt lat="51.9953178708" lon="-1.8868010212"><ele>266.42</ele><time>2015-02-04T12:02:03Z</time></trkpt><trkpt lat="51.9954567589" lon="-1.8868041225"><ele>268.83</ele><time>2015-02-04T12:02:19Z</time></trkpt><trkpt lat="51.9954779651" lon="-1.8868040387"><ele>268.83</ele><time>2015-02-04T12:02:41Z</time></trkpt><trkpt lat="51.9955065474" lon="-1.8868034519"><ele>269.79</ele><time>2015-02-04T12:03:04Z</time></trkpt><trkpt lat="51.9955113251" lon="-1.8868024461"><ele>270.27</ele><time>2015-02-04T12:03:26Z</time></trkpt><trkpt lat="51.9955192041" lon="-1.8868038710"><ele>271.23</ele><time>2015-02-04T12:03:45Z</time></trkpt><trkpt lat="51.9955346268" lon="-1.8868116662"><ele>272.67</ele><time>2015-02-04T12:04:07Z</time></trkpt><trkpt lat="51.9956600200" lon="-1.8867970817"><ele>273.63</ele><time>2015-02-04T12:04:22Z</time></trkpt><trkpt lat="51.9958116487" lon="-1.8868245743"><ele>274.59</ele><time>2015-02-04T12:04:36Z</time></trkpt><trkpt lat="51.9958440028" lon="-1.8868461996"><ele>274.11</ele><time>2015-02-04T12:04:59Z</time></trkpt><trkpt lat="51.9959098008" lon="-1.8868337944"><ele>274.59</ele><time>2015-02-04T12:05:21Z</time></trkpt><trkpt lat="51.9959577452" lon="-1.8868295196"><ele>275.07</ele><time>2015-02-04T12:05:41Z</time></trkpt><trkpt lat="51.9960064441" lon="-1.8868278433"><ele>275.56</ele><time>2015-02-04T12:05:51Z</time></trkpt><trkpt lat="51.9960402232" lon="-1.8868310284"><ele>270.75</ele><time>2015-02-04T12:05:55Z</time></trkpt><trkpt lat="51.9960475154" lon="-1.8868299387"><ele>277.00</ele><time>2015-02-04T12:05:56Z</time></trkpt><trkpt lat="51.9961152412" lon="-1.8868664838"><ele>277.00</ele><time>2015-02-04T12:06:09Z</time></trkpt><trkpt lat="51.9961085357" lon="-1.8868678249"><ele>277.48</ele><time>2015-02-04T12:06:26Z</time></trkpt><trkpt lat="51.9961473439" lon="-1.8868881091"><ele>277.48</ele><time>2015-02-04T12:06:49Z</time></trkpt><trkpt lat="51.9963004813" lon="-1.8868741952"><ele>278.92</ele><time>2015-02-04T12:07:06Z</time></trkpt><trkpt lat="51.9964059256" lon="-1.8869016878"><ele>278.92</ele><time>2015-02-04T12:07:19Z</time></trkpt><trkpt lat="51.9965195842" lon="-1.8869030289"><ele>280.36</ele><time>2015-02-04T12:07:34Z</time></trkpt><trkpt lat="51.9966516830" lon="-1.8869208824"><ele>280.36</ele><time>2015-02-04T12:07:49Z</time></trkpt><trkpt lat="51.9967831951" lon="-1.8869316950"><ele>281.80</ele><time>2015-02-04T12:08:04Z</time></trkpt><trkpt lat="51.9968364201" lon="-1.8869477045"><ele>280.84</ele><time>2015-02-04T12:08:18Z</time></trkpt><trkpt lat="51.9969490729" lon="-1.8869709224"><ele>281.32</ele><time>2015-02-04T12:08:31Z</time></trkpt><trkpt lat="51.9970975164" lon="-1.8870108202"><ele>281.32</ele><time>2015-02-04T12:08:45Z</time></trkpt><trkpt lat="51.9972364884" lon="-1.8870196212"><ele>281.32</ele><time>2015-02-04T12:09:01Z</time></trkpt><trkpt lat="51.9973245822" lon="-1.8870412465"><ele>280.36</ele><time>2015-02-04T12:09:13Z</time></trkpt><trkpt lat="51.9974409230" lon="-1.8870332837"><ele>280.36</ele><time>2015-02-04T12:09:28Z</time></trkpt><trkpt lat="51.9974477962" lon="-1.8870370556"><ele>280.36</ele><time>2015-02-04T12:09:42Z</time></trkpt><trkpt lat="51.9974511489" lon="-1.8870358821"><ele>279.40</ele><time>2015-02-04T12:09:58Z</time></trkpt><trkpt lat="51.9974465389" lon="-1.8870296795"><ele>278.92</ele><time>2015-02-04T12:10:07Z</time></trkpt><trkpt lat="51.9974673260" lon="-1.8870203756"><ele>283.25</ele><time>2015-02-04T12:10:13Z</time></trkpt><trkpt lat="51.9974731095" lon="-1.8870088924"><ele>279.40</ele><time>2015-02-04T12:10:14Z</time></trkpt><trkpt lat="51.9974797312" lon="-1.8869878538"><ele>279.40</ele><time>2015-02-04T12:10:32Z</time></trkpt><trkpt lat="51.9974943157" lon="-1.8869832437"><ele>277.96</ele><time>2015-02-04T12:10:48Z</time></trkpt><trkpt lat="51.9975605328" lon="-1.8870331161"><ele>277.48</ele><time>2015-02-04T12:11:00Z</time></trkpt><trkpt lat="51.9976057112" lon="-1.8870987464"><ele>275.07</ele><time>2015-02-04T12:11:18Z</time></trkpt><trkpt lat="51.9976676535" lon="-1.8871823139"><ele>273.63</ele><time>2015-02-04T12:11:36Z</time></trkpt><trkpt lat="51.9977684878" lon="-1.8872410711"><ele>272.67</ele><time>2015-02-04T12:11:55Z</time></trkpt><trkpt lat="51.9979025144" lon="-1.8873926159"><ele>272.67</ele><time>2015-02-04T12:12:12Z</time></trkpt><trkpt lat="51.9979675580" lon="-1.8876494374"><ele>271.71</ele><time>2015-02-04T12:12:27Z</time></trkpt><trkpt lat="51.9979911949" lon="-1.8877672032"><ele>271.23</ele><time>2015-02-04T12:12:40Z</time></trkpt><trkpt lat="51.9980393909" lon="-1.8879421335"><ele>270.27</ele><time>2015-02-04T12:12:55Z</time></trkpt><trkpt lat="51.9980339427" lon="-1.8880724721"><ele>270.75</ele><time>2015-02-04T12:13:11Z</time></trkpt><trkpt lat="51.9980547298" lon="-1.8882234301"><ele>270.27</ele><time>2015-02-04T12:13:25Z</time></trkpt><trkpt lat="51.9980804622" lon="-1.8884014618"><ele>269.79</ele><time>2015-02-04T12:13:39Z</time></trkpt><trkpt lat="51.9980761036" lon="-1.8884156272"><ele>268.83</ele><time>2015-02-04T12:14:04Z</time></trkpt><trkpt lat="51.9980724156" lon="-1.8884148728"><ele>269.31</ele><time>2015-02-04T12:14:32Z</time></trkpt><trkpt lat="51.9980512094" lon="-1.8884500768"><ele>266.42</ele><time>2015-02-04T12:14:45Z</time></trkpt><trkpt lat="51.9980175141" lon="-1.8885470554"><ele>266.42</ele><time>2015-02-04T12:15:01Z</time></trkpt><trkpt lat="51.9979989063" lon="-1.8885846902"><ele>266.42</ele><time>2015-02-04T12:15:17Z</time></trkpt><trkpt lat="51.9979993254" lon="-1.8885685131"><ele>265.94</ele><time>2015-02-04T12:15:38Z</time></trkpt><trkpt lat="51.9980027620" lon="-1.8885613047"><ele>265.46</ele><time>2015-02-04T12:16:02Z</time></trkpt><trkpt lat="51.9980163407" lon="-1.8885904737"><ele>265.46</ele><time>2015-02-04T12:16:24Z</time></trkpt><trkpt lat="51.9980140775" lon="-1.8886466324"><ele>265.46</ele><time>2015-02-04T12:16:37Z</time></trkpt><trkpt lat="51.9979903568" lon="-1.8888317049"><ele>263.54</ele><time>2015-02-04T12:16:49Z</time></trkpt><trkpt lat="51.9979851600" lon="-1.8889077287"><ele>262.10</ele><time>2015-02-04T12:16:53Z</time></trkpt><trkpt lat="51.9979728386" lon="-1.8890324514"><ele>261.14</ele><time>2015-02-04T12:17:00Z</time></trkpt><trkpt lat="51.9979734253" lon="-1.8891389854"><ele>259.69</ele><time>2015-02-04T12:17:04Z</time></trkpt><trkpt lat="51.9979410712" lon="-1.8895227090"><ele>257.29</ele><time>2015-02-04T12:17:20Z</time></trkpt><trkpt lat="51.9979349524" lon="-1.8896925263"><ele>255.37</ele><time>2015-02-04T12:17:33Z</time></trkpt><trkpt lat="51.9979480281" lon="-1.8897392135"><ele>254.89</ele><time>2015-02-04T12:17:36Z</time></trkpt><trkpt lat="51.9979566615" lon="-1.8898049276"><ele>253.44</ele><time>2015-02-04T12:17:40Z</time></trkpt><trkpt lat="51.9979639538" lon="-1.8898665346"><ele>253.93</ele><time>2015-02-04T12:17:43Z</time></trkpt><trkpt lat="51.9980238844" lon="-1.8899986334"><ele>250.56</ele><time>2015-02-04T12:17:53Z</time></trkpt><trkpt lat="51.9980820548" lon="-1.8900487572"><ele>252.48</ele><time>2015-02-04T12:18:06Z</time></trkpt><trkpt lat="51.9981569052" lon="-1.8901499268"><ele>250.56</ele><time>2015-02-04T12:18:21Z</time></trkpt><trkpt lat="51.9981929474" lon="-1.8901793472"><ele>250.08</ele><time>2015-02-04T12:18:30Z</time></trkpt><trkpt lat="51.9982216135" lon="-1.8902320694"><ele>250.08</ele><time>2015-02-04T12:18:34Z</time></trkpt><trkpt lat="51.9983449113" lon="-1.8904820178"><ele>246.72</ele><time>2015-02-04T12:18:52Z</time></trkpt><trkpt lat="51.9984097872" lon="-1.8905666750"><ele>243.83</ele><time>2015-02-04T12:19:01Z</time></trkpt><trkpt lat="51.9984470867" lon="-1.8906059023"><ele>244.79</ele><time>2015-02-04T12:19:08Z</time></trkpt><trkpt lat="51.9984600786" lon="-1.8906787410"><ele>243.83</ele><time>2015-02-04T12:19:20Z</time></trkpt><trkpt lat="51.9984652754" lon="-1.8906927388"><ele>243.35</ele><time>2015-02-04T12:19:34Z</time></trkpt><trkpt lat="51.9984682929" lon="-1.8907040544"><ele>242.39</ele><time>2015-02-04T12:19:48Z</time></trkpt><trkpt lat="51.9984680414" lon="-1.8906986900"><ele>242.87</ele><time>2015-02-04T12:19:57Z</time></trkpt><trkpt lat="51.9984811172" lon="-1.8907312956"><ele>242.39</ele><time>2015-02-04T12:20:00Z</time></trkpt><trkpt lat="51.9985003956" lon="-1.8908983469"><ele>241.91</ele><time>2015-02-04T12:20:15Z</time></trkpt><trkpt lat="51.9985014852" lon="-1.8908970058"><ele>241.43</ele><time>2015-02-04T12:20:19Z</time></trkpt><trkpt lat="51.9985124655" lon="-1.8909334671"><ele>241.43</ele><time>2015-02-04T12:20:21Z</time></trkpt><trkpt lat="51.9985694624" lon="-1.8912299350"><ele>238.54</ele><time>2015-02-04T12:20:35Z</time></trkpt><trkpt lat="51.9985912554" lon="-1.8913276680"><ele>237.58</ele><time>2015-02-04T12:20:41Z</time></trkpt><trkpt lat="51.9985708036" lon="-1.8914658856"><ele>237.10</ele><time>2015-02-04T12:20:52Z</time></trkpt><trkpt lat="51.9986088574" lon="-1.8915980682"><ele>235.18</ele><time>2015-02-04T12:20:57Z</time></trkpt><trkpt lat="51.9986363500" lon="-1.8916985672"><ele>234.70</ele><time>2015-02-04T12:21:06Z</time></trkpt><trkpt lat="51.9987103622" lon="-1.8917900138"><ele>234.22</ele><time>2015-02-04T12:21:15Z</time></trkpt><trkpt lat="51.9988146331" lon="-1.8919620942"><ele>230.85</ele><time>2015-02-04T12:21:27Z</time></trkpt><trkpt lat="51.9988541957" lon="-1.8920718133"><ele>230.85</ele><time>2015-02-04T12:21:33Z</time></trkpt><trkpt lat="51.9989179820" lon="-1.8923505116"><ele>228.45</ele><time>2015-02-04T12:21:48Z</time></trkpt><trkpt lat="51.9989247713" lon="-1.8923701253"><ele>228.93</ele><time>2015-02-04T12:21:49Z</time></trkpt><trkpt lat="51.9989691954" lon="-1.8926601391"><ele>227.49</ele><time>2015-02-04T12:22:04Z</time></trkpt><trkpt lat="51.9990214985" lon="-1.8928880431"><ele>227.01</ele><time>2015-02-04T12:22:19Z</time></trkpt><trkpt lat="51.9990248512" lon="-1.8929055613"><ele>227.01</ele><time>2015-02-04T12:22:20Z</time></trkpt><trkpt lat="51.9990594685" lon="-1.8930888735"><ele>226.05</ele><time>2015-02-04T12:22:34Z</time></trkpt><trkpt lat="51.9990769867" lon="-1.8932756223"><ele>226.05</ele><time>2015-02-04T12:22:47Z</time></trkpt><trkpt lat="51.9991189800" lon="-1.8934074696"><ele>225.09</ele><time>2015-02-04T12:23:04Z</time></trkpt><trkpt lat="51.9991303794" lon="-1.8934614491"><ele>224.12</ele><time>2015-02-04T12:23:08Z</time></trkpt><trkpt lat="51.9991871249" lon="-1.8935932126"><ele>223.16</ele><time>2015-02-04T12:23:18Z</time></trkpt><trkpt lat="51.9993085787" lon="-1.8937502895"><ele>221.72</ele><time>2015-02-04T12:23:35Z</time></trkpt><trkpt lat="51.9994317088" lon="-1.8939139880"><ele>219.32</ele><time>2015-02-04T12:23:52Z</time></trkpt><trkpt lat="51.9995207246" lon="-1.8940142356"><ele>216.91</ele><time>2015-02-04T12:24:06Z</time></trkpt><trkpt lat="51.9995369017" lon="-1.8940278143"><ele>216.43</ele><time>2015-02-04T12:24:09Z</time></trkpt><trkpt lat="51.9996381551" lon="-1.8941299058"><ele>215.47</ele><time>2015-02-04T12:24:23Z</time></trkpt><trkpt lat="51.9997527357" lon="-1.8942266330"><ele>214.03</ele><time>2015-02-04T12:24:38Z</time></trkpt><trkpt lat="51.9998143427" lon="-1.8942780979"><ele>214.03</ele><time>2015-02-04T12:24:47Z</time></trkpt><trkpt lat="51.9999573380" lon="-1.8944105320"><ele>213.07</ele><time>2015-02-04T12:25:04Z</time></trkpt><trkpt lat="52.0000526402" lon="-1.8944872264"><ele>213.55</ele><time>2015-02-04T12:25:16Z</time></trkpt><trkpt lat="52.0001703221" lon="-1.8946038187"><ele>213.07</ele><time>2015-02-04T12:25:32Z</time></trkpt><trkpt lat="52.0002301689" lon="-1.8946762383"><ele>212.11</ele><time>2015-02-04T12:25:45Z</time></trkpt><trkpt lat="52.0002476033" lon="-1.8947284576"><ele>210.67</ele><time>2015-02-04T12:25:57Z</time></trkpt><trkpt lat="52.0002642833" lon="-1.8947911542"><ele>208.74</ele><time>2015-02-04T12:26:13Z</time></trkpt><trkpt lat="52.0003035944" lon="-1.8949067406"><ele>208.26</ele><time>2015-02-04T12:26:26Z</time></trkpt><trkpt lat="52.0003238786" lon="-1.8949670903"><ele>206.34</ele><time>2015-02-04T12:26:41Z</time></trkpt><trkpt lat="52.0003236271" lon="-1.8949703593"><ele>206.82</ele><time>2015-02-04T12:27:06Z</time></trkpt><trkpt lat="52.0003667101" lon="-1.8951165397"><ele>206.82</ele><time>2015-02-04T12:27:19Z</time></trkpt><trkpt lat="52.0003859047" lon="-1.8951851875"><ele>206.34</ele><time>2015-02-04T12:27:34Z</time></trkpt><trkpt lat="52.0004221145" lon="-1.8952365685"><ele>202.98</ele><time>2015-02-04T12:27:44Z</time></trkpt><trkpt lat="52.0005356893" lon="-1.8954612035"><ele>203.46</ele><time>2015-02-04T12:28:02Z</time></trkpt><trkpt lat="52.0005847234" lon="-1.8956587650"><ele>201.53</ele><time>2015-02-04T12:28:14Z</time></trkpt><trkpt lat="52.0006981306" lon="-1.8957715854"><ele>199.61</ele><time>2015-02-04T12:28:26Z</time></trkpt><trkpt lat="52.0007538702" lon="-1.8958305940"><ele>198.17</ele><time>2015-02-04T12:28:34Z</time></trkpt><trkpt lat="52.0007894933" lon="-1.8958713301"><ele>197.69</ele><time>2015-02-04T12:28:38Z</time></trkpt><trkpt lat="52.0009247772" lon="-1.8960378785"><ele>194.32</ele><time>2015-02-04T12:28:53Z</time></trkpt><trkpt lat="52.0010565408" lon="-1.8961728271"><ele>193.36</ele><time>2015-02-04T12:29:07Z</time></trkpt><trkpt lat="52.0011256915" lon="-1.8962829653"><ele>194.80</ele><time>2015-02-04T12:29:20Z</time></trkpt><trkpt lat="52.0011408627" lon="-1.8962954544"><ele>193.84</ele><time>2015-02-04T12:29:25Z</time></trkpt><trkpt lat="52.0012007933" lon="-1.8964181654"><ele>193.84</ele><time>2015-02-04T12:29:37Z</time></trkpt><trkpt lat="52.0012178924" lon="-1.8964386173"><ele>193.36</ele><time>2015-02-04T12:29:58Z</time></trkpt><trkpt lat="52.0012448821" lon="-1.8964758329"><ele>193.36</ele><time>2015-02-04T12:30:07Z</time></trkpt><trkpt lat="52.0013111830" lon="-1.8965918384"><ele>190.96</ele><time>2015-02-04T12:30:15Z</time></trkpt><trkpt lat="52.0013587084" lon="-1.8967354205"><ele>190.00</ele><time>2015-02-04T12:30:24Z</time></trkpt><trkpt lat="52.0013518352" lon="-1.8969007116"><ele>187.11</ele><time>2015-02-04T12:30:33Z</time></trkpt><trkpt lat="52.0013587922" lon="-1.8969104346"><ele>185.67</ele><time>2015-02-04T12:30:35Z</time></trkpt><trkpt lat="52.0014048088" lon="-1.8969360832"><ele>184.71</ele><time>2015-02-04T12:30:46Z</time></trkpt><trkpt lat="52.0014054794" lon="-1.8969453871"><ele>184.23</ele><time>2015-02-04T12:30:58Z</time></trkpt><trkpt lat="52.0014323015" lon="-1.8971415237"><ele>182.79</ele><time>2015-02-04T12:31:12Z</time></trkpt><trkpt lat="52.0014398452" lon="-1.8972670007"><ele>182.31</ele><time>2015-02-04T12:31:26Z</time></trkpt><trkpt lat="52.0014707744" lon="-1.8974533305"><ele>179.42</ele><time>2015-02-04T12:31:40Z</time></trkpt><trkpt lat="52.0014783181" lon="-1.8974734470"><ele>178.46</ele><time>2015-02-04T12:31:42Z</time></trkpt><trkpt lat="52.0015027933" lon="-1.8974953238"><ele>177.50</ele><time>2015-02-04T12:31:46Z</time></trkpt><trkpt lat="52.0015832596" lon="-1.8976000976"><ele>176.06</ele><time>2015-02-04T12:31:59Z</time></trkpt><trkpt lat="52.0015747938" lon="-1.8975877762"><ele>176.06</ele><time>2015-02-04T12:32:14Z</time></trkpt><trkpt lat="52.0016359817" lon="-1.8976628780"><ele>175.10</ele><time>2015-02-04T12:32:28Z</time></trkpt><trkpt lat="52.0016443636" lon="-1.8976647221"><ele>174.14</ele><time>2015-02-04T12:32:42Z</time></trkpt><trkpt lat="52.0016653184" lon="-1.8976809829"><ele>173.66</ele><time>2015-02-04T12:32:44Z</time></trkpt><trkpt lat="52.0017751213" lon="-1.8978628702"><ele>169.81</ele><time>2015-02-04T12:32:58Z</time></trkpt><trkpt lat="52.0017870236" lon="-1.8978844117"><ele>169.33</ele><time>2015-02-04T12:33:00Z</time></trkpt><trkpt lat="52.0018257480" lon="-1.8979907781"><ele>168.85</ele><time>2015-02-04T12:33:08Z</time></trkpt><trkpt lat="52.0019107405" lon="-1.8981268164"><ele>166.45</ele><time>2015-02-04T12:33:21Z</time></trkpt><trkpt lat="52.0019690786" lon="-1.8981230445"><ele>165.96</ele><time>2015-02-04T12:33:28Z</time></trkpt><trkpt lat="52.0019993372" lon="-1.8982391339"><ele>165.48</ele><time>2015-02-04T12:33:41Z</time></trkpt><trkpt lat="52.0019997563" lon="-1.8982494436"><ele>165.48</ele><time>2015-02-04T12:33:42Z</time></trkpt><trkpt lat="52.0020298474" lon="-1.8983028363"><ele>163.56</ele><time>2015-02-04T12:33:57Z</time></trkpt><trkpt lat="52.0020481199" lon="-1.8983136490"><ele>163.08</ele><time>2015-02-04T12:34:00Z</time></trkpt><trkpt lat="52.0020732656" lon="-1.8983247969"><ele>162.12</ele><time>2015-02-04T12:34:03Z</time></trkpt><trkpt lat="52.0021875110" lon="-1.8984640203"><ele>159.72</ele><time>2015-02-04T12:34:18Z</time></trkpt><trkpt lat="52.0022351202" lon="-1.8985402957"><ele>158.75</ele><time>2015-02-04T12:34:25Z</time></trkpt><trkpt lat="52.0022590924" lon="-1.8985638488"><ele>157.79</ele><time>2015-02-04T12:34:28Z</time></trkpt><trkpt lat="52.0023506228" lon="-1.8986498471"><ele>155.39</ele><time>2015-02-04T12:34:43Z</time></trkpt><trkpt lat="52.0023554005" lon="-1.8986546248"><ele>155.39</ele><time>2015-02-04T12:34:44Z</time></trkpt><trkpt lat="52.0023853239" lon="-1.8986867275"><ele>155.87</ele><time>2015-02-04T12:34:56Z</time></trkpt><trkpt lat="52.0024213661" lon="-1.8986982945"><ele>154.43</ele><time>2015-02-04T12:35:00Z</time></trkpt><trkpt lat="52.0024536364" lon="-1.8987275474"><ele>153.47</ele><time>2015-02-04T12:35:04Z</time></trkpt><trkpt lat="52.0025624335" lon="-1.8987863883"><ele>152.51</ele><time>2015-02-04T12:35:17Z</time></trkpt><trkpt lat="52.0026419777" lon="-1.8988924194"><ele>150.58</ele><time>2015-02-04T12:35:31Z</time></trkpt><trkpt lat="52.0026862342" lon="-1.8989366759"><ele>149.14</ele><time>2015-02-04T12:35:46Z</time></trkpt><trkpt lat="52.0027388725" lon="-1.8990078382"><ele>147.70</ele><time>2015-02-04T12:35:56Z</time></trkpt><trkpt lat="52.0028517768" lon="-1.8991199043"><ele>145.78</ele><time>2015-02-04T12:36:09Z</time></trkpt><trkpt lat="52.0028721448" lon="-1.8991452176"><ele>145.30</ele><time>2015-02-04T12:36:25Z</time></trkpt><trkpt lat="52.0029501803" lon="-1.8992190622"><ele>142.41</ele><time>2015-02-04T12:36:42Z</time></trkpt><trkpt lat="52.0029791817" lon="-1.8992268573"><ele>142.41</ele><time>2015-02-04T12:36:49Z</time></trkpt><trkpt lat="52.0030759089" lon="-1.8993024621"><ele>140.49</ele><time>2015-02-04T12:37:02Z</time></trkpt><trkpt lat="52.0030690357" lon="-1.8993320502"><ele>140.49</ele><time>2015-02-04T12:37:16Z</time></trkpt><trkpt lat="52.0030607376" lon="-1.8993540946"><ele>139.53</ele><time>2015-02-04T12:37:38Z</time></trkpt><trkpt lat="52.0030675270" lon="-1.8993620574"><ele>140.01</ele><time>2015-02-04T12:37:58Z</time></trkpt><trkpt lat="52.0031007193" lon="-1.8993799947"><ele>139.53</ele><time>2015-02-04T12:38:21Z</time></trkpt><trkpt lat="52.0031924173" lon="-1.8994717766"><ele>137.13</ele><time>2015-02-04T12:38:35Z</time></trkpt><trkpt lat="52.0032626577" lon="-1.8996301107"><ele>135.20</ele><time>2015-02-04T12:38:50Z</time></trkpt><trkpt lat="52.0032696985" lon="-1.8996349722"><ele>134.72</ele><time>2015-02-04T12:39:09Z</time></trkpt><trkpt lat="52.0032798406" lon="-1.8996680807"><ele>134.72</ele><time>2015-02-04T12:39:29Z</time></trkpt><trkpt lat="52.0032735541" lon="-1.8996769655"><ele>134.72</ele><time>2015-02-04T12:39:49Z</time></trkpt><trkpt lat="52.0032845344" lon="-1.8996742833"><ele>134.72</ele><time>2015-02-04T12:40:12Z</time></trkpt><trkpt lat="52.0033031423" lon="-1.8997444399"><ele>133.76</ele><time>2015-02-04T12:40:25Z</time></trkpt><trkpt lat="52.0033088420" lon="-1.8997731898"><ele>133.28</ele><time>2015-02-04T12:40:46Z</time></trkpt><trkpt lat="52.0033110213" lon="-1.8997716811"><ele>134.24</ele><time>2015-02-04T12:40:58Z</time></trkpt><trkpt lat="52.0033142064" lon="-1.8997772969"><ele>133.76</ele><time>2015-02-04T12:41:13Z</time></trkpt><trkpt lat="52.0033091772" lon="-1.8998061307"><ele>133.28</ele><time>2015-02-04T12:41:25Z</time></trkpt><trkpt lat="52.0033100154" lon="-1.8998184521"><ele>132.80</ele><time>2015-02-04T12:41:42Z</time></trkpt><trkpt lat="52.0033120271" lon="-1.8998149317"><ele>133.28</ele><time>2015-02-04T12:42:03Z</time></trkpt><trkpt lat="52.0033104345" lon="-1.8997872714"><ele>133.76</ele><time>2015-02-04T12:42:18Z</time></trkpt><trkpt lat="52.0033117756" lon="-1.8997764587"><ele>134.24</ele><time>2015-02-04T12:42:42Z</time></trkpt><trkpt lat="52.0033189841" lon="-1.8997565936"><ele>135.20</ele><time>2015-02-04T12:42:46Z</time></trkpt><trkpt lat="52.0033198223" lon="-1.8997426797"><ele>134.72</ele><time>2015-02-04T12:43:04Z</time></trkpt><trkpt lat="52.0033179782" lon="-1.8997087330"><ele>135.68</ele><time>2015-02-04T12:43:18Z</time></trkpt><trkpt lat="52.0033228397" lon="-1.8996936455"><ele>135.20</ele><time>2015-02-04T12:43:34Z</time></trkpt><trkpt lat="52.0033253543" lon="-1.8996959087"><ele>135.20</ele><time>2015-02-04T12:43:52Z</time></trkpt><trkpt lat="52.0033292938" lon="-1.8997104932"><ele>132.80</ele><time>2015-02-04T12:44:07Z</time></trkpt><trkpt lat="52.0033881348" lon="-1.8997612037"><ele>132.80</ele><time>2015-02-04T12:44:16Z</time></trkpt><trkpt lat="52.0034346543" lon="-1.8999744393"><ele>132.32</ele><time>2015-02-04T12:44:31Z</time></trkpt><trkpt lat="52.0035123546" lon="-1.9001122378"><ele>129.43</ele><time>2015-02-04T12:44:47Z</time></trkpt><trkpt lat="52.0035675075" lon="-1.9002357870"><ele>127.99</ele><time>2015-02-04T12:44:59Z</time></trkpt><trkpt lat="52.0035873726" lon="-1.9002733380"><ele>124.63</ele><time>2015-02-04T12:45:02Z</time></trkpt><trkpt lat="52.0035923179" lon="-1.9002849050"><ele>127.99</ele><time>2015-02-04T12:45:03Z</time></trkpt><trkpt lat="52.0036328863" lon="-1.9004251342"><ele>125.59</ele><time>2015-02-04T12:45:13Z</time></trkpt><trkpt lat="52.0036555175" lon="-1.9004863221"><ele>124.63</ele><time>2015-02-04T12:45:17Z</time></trkpt><trkpt lat="52.0036761370" lon="-1.9005183410"><ele>123.67</ele><time>2015-02-04T12:45:20Z</time></trkpt><trkpt lat="52.0036660787" lon="-1.9007274695"><ele>121.26</ele><time>2015-02-04T12:45:31Z</time></trkpt><trkpt lat="52.0036786515" lon="-1.9008632563"><ele>120.30</ele><time>2015-02-04T12:45:39Z</time></trkpt><trkpt lat="52.0037099160" lon="-1.9009635877"><ele>118.86</ele><time>2015-02-04T12:45:46Z</time></trkpt><trkpt lat="52.0037803240" lon="-1.9010992069"><ele>115.98</ele><time>2015-02-04T12:45:58Z</time></trkpt><trkpt lat="52.0038168691" lon="-1.9011076726"><ele>115.98</ele><time>2015-02-04T12:46:01Z</time></trkpt><trkpt lat="52.0038798172" lon="-1.9012582954"><ele>114.53</ele><time>2015-02-04T12:46:12Z</time></trkpt><trkpt lat="52.0038882829" lon="-1.9012891408"><ele>113.09</ele><time>2015-02-04T12:46:14Z</time></trkpt><trkpt lat="52.0039790589" lon="-1.9014114328"><ele>112.61</ele><time>2015-02-04T12:46:30Z</time></trkpt><trkpt lat="52.0040834136" lon="-1.9015006162"><ele>111.17</ele><time>2015-02-04T12:46:44Z</time></trkpt><trkpt lat="52.0040917955" lon="-1.9015095849"><ele>111.17</ele><time>2015-02-04T12:46:45Z</time></trkpt><trkpt lat="52.0042094775" lon="-1.9016425218"><ele>109.25</ele><time>2015-02-04T12:46:59Z</time></trkpt><trkpt lat="52.0042189490" lon="-1.9016597886"><ele>109.25</ele><time>2015-02-04T12:47:09Z</time></trkpt><trkpt lat="52.0042179432" lon="-1.9016838446"><ele>108.29</ele><time>2015-02-04T12:47:31Z</time></trkpt><trkpt lat="52.0041640475" lon="-1.9017824158"><ele>108.29</ele><time>2015-02-04T12:47:43Z</time></trkpt><trkpt lat="52.0041647181" lon="-1.9017845113"><ele>107.81</ele><time>2015-02-04T12:47:45Z</time></trkpt><trkpt lat="52.0041179471" lon="-1.9018851779"><ele>108.29</ele><time>2015-02-04T12:47:58Z</time></trkpt><trkpt lat="52.0041497145" lon="-1.9019322842"><ele>107.81</ele><time>2015-02-04T12:48:12Z</time></trkpt><trkpt lat="52.0042169373" lon="-1.9021006767"><ele>106.84</ele><time>2015-02-04T12:48:26Z</time></trkpt><trkpt lat="52.0042673126" lon="-1.9022129942"><ele>105.88</ele><time>2015-02-04T12:48:38Z</time></trkpt><trkpt lat="52.0042770356" lon="-1.9022422470"><ele>105.88</ele><time>2015-02-04T12:48:44Z</time></trkpt><trkpt lat="52.0043994114" lon="-1.9023425784"><ele>104.92</ele><time>2015-02-04T12:48:59Z</time></trkpt><trkpt lat="52.0044510439" lon="-1.9024080411"><ele>104.44</ele><time>2015-02-04T12:49:10Z</time></trkpt><trkpt lat="52.0045058616" lon="-1.9024319295"><ele>103.96</ele><time>2015-02-04T12:49:23Z</time></trkpt><trkpt lat="52.0045076218" lon="-1.9025048520"><ele>103.48</ele><time>2015-02-04T12:49:38Z</time></trkpt><trkpt lat="52.0045425743" lon="-1.9026029203"><ele>103.00</ele><time>2015-02-04T12:49:53Z</time></trkpt><trkpt lat="52.0045774430" lon="-1.9026962109"><ele>102.52</ele><time>2015-02-04T12:49:59Z</time></trkpt><trkpt lat="52.0046530478" lon="-1.9028829597"><ele>101.56</ele><time>2015-02-04T12:50:12Z</time></trkpt><trkpt lat="52.0046997350" lon="-1.9029338378"><ele>101.08</ele><time>2015-02-04T12:50:20Z</time></trkpt><trkpt lat="52.0047501102" lon="-1.9029628392"><ele>101.08</ele><time>2015-02-04T12:50:34Z</time></trkpt><trkpt lat="52.0048070233" lon="-1.9029960316"><ele>100.11</ele><time>2015-02-04T12:50:49Z</time></trkpt><trkpt lat="52.0048551355" lon="-1.9030319061"><ele>99.63</ele><time>2015-02-04T12:50:55Z</time></trkpt><trkpt lat="52.0050247852" lon="-1.9032090157"><ele>98.19</ele><time>2015-02-04T12:51:10Z</time></trkpt><trkpt lat="52.0051140524" lon="-1.9031819422"><ele>97.23</ele><time>2015-02-04T12:51:22Z</time></trkpt><trkpt lat="52.0052064210" lon="-1.9030641764"><ele>97.23</ele><time>2015-02-04T12:51:35Z</time></trkpt><trkpt lat="52.0053232647" lon="-1.9029249530"><ele>97.23</ele><time>2015-02-04T12:51:50Z</time></trkpt><trkpt lat="52.0054002944" lon="-1.9028390385"><ele>97.23</ele><time>2015-02-04T12:51:59Z</time></trkpt><trkpt lat="52.0054305531" lon="-1.9028044213"><ele>97.23</ele><time>2015-02-04T12:52:02Z</time></trkpt><trkpt lat="52.0056125242" lon="-1.9027801137"><ele>97.23</ele><time>2015-02-04T12:52:18Z</time></trkpt><trkpt lat="52.0057930704" lon="-1.9027252961"><ele>97.71</ele><time>2015-02-04T12:52:33Z</time></trkpt><trkpt lat="52.0059042983" lon="-1.9026702270"><ele>97.71</ele><time>2015-02-04T12:52:52Z</time></trkpt><trkpt lat="52.0060741995" lon="-1.9026555587"><ele>98.19</ele><time>2015-02-04T12:53:07Z</time></trkpt><trkpt lat="52.0061207190" lon="-1.9026277307"><ele>97.71</ele><time>2015-02-04T12:53:21Z</time></trkpt><trkpt lat="52.0063034445" lon="-1.9025461748"><ele>98.19</ele><time>2015-02-04T12:53:37Z</time></trkpt><trkpt lat="52.0063466113" lon="-1.9025083724"><ele>97.71</ele><time>2015-02-04T12:54:00Z</time></trkpt><trkpt lat="52.0064768661" lon="-1.9024706539"><ele>98.19</ele><time>2015-02-04T12:54:13Z</time></trkpt><trkpt lat="52.0065213740" lon="-1.9024572428"><ele>97.71</ele><time>2015-02-04T12:54:18Z</time></trkpt><trkpt lat="52.0066025946" lon="-1.9024744257"><ele>97.23</ele><time>2015-02-04T12:54:25Z</time></trkpt><trkpt lat="52.0068232901" lon="-1.9025968853"><ele>96.27</ele><time>2015-02-04T12:54:42Z</time></trkpt><trkpt lat="52.0068785269" lon="-1.9026475959"><ele>95.79</ele><time>2015-02-04T12:54:49Z</time></trkpt><trkpt lat="52.0068993140" lon="-1.9026675448"><ele>95.79</ele><time>2015-02-04T12:54:51Z</time></trkpt><trkpt lat="52.0070736576" lon="-1.9028840493"><ele>94.83</ele><time>2015-02-04T12:55:06Z</time></trkpt><trkpt lat="52.0072699618" lon="-1.9029744063"><ele>95.79</ele><time>2015-02-04T12:55:21Z</time></trkpt><trkpt lat="52.0074460655" lon="-1.9029763341"><ele>96.27</ele><time>2015-02-04T12:55:37Z</time></trkpt><trkpt lat="52.0075534377" lon="-1.9030140527"><ele>96.75</ele><time>2015-02-04T12:55:48Z</time></trkpt><trkpt lat="52.0076435432" lon="-1.9032039028"><ele>95.79</ele><time>2015-02-04T12:56:03Z</time></trkpt><trkpt lat="52.0076472312" lon="-1.9032480754"><ele>95.79</ele><time>2015-02-04T12:56:05Z</time></trkpt><trkpt lat="52.0076423697" lon="-1.9032961875"><ele>95.79</ele><time>2015-02-04T12:56:08Z</time></trkpt><trkpt lat="52.0076047350" lon="-1.9033448864"><ele>95.31</ele><time>2015-02-04T12:56:12Z</time></trkpt><trkpt lat="52.0075932518" lon="-1.9033982791"><ele>94.83</ele><time>2015-02-04T12:56:23Z</time></trkpt><trkpt lat="52.0075967722" lon="-1.9033929147"><ele>95.31</ele><time>2015-02-04T12:56:40Z</time></trkpt><trkpt lat="52.0076039806" lon="-1.9033962674"><ele>95.31</ele><time>2015-02-04T12:56:54Z</time></trkpt><trkpt lat="52.0076096803" lon="-1.9034046493"><ele>95.31</ele><time>2015-02-04T12:57:15Z</time></trkpt><trkpt lat="52.0076107699" lon="-1.9033935014"><ele>98.19</ele><time>2015-02-04T12:57:27Z</time></trkpt><trkpt lat="52.0076120272" lon="-1.9033911545"><ele>95.31</ele><time>2015-02-04T12:57:32Z</time></trkpt><trkpt lat="52.0076124463" lon="-1.9033855386"><ele>95.31</ele><time>2015-02-04T12:57:40Z</time></trkpt></trkseg></trk></gpx>